Wetterdaten: Donnerstag, 24.06.2021
Datum Zeit Temp. Aussen Temp. o. S. Temp +5cm Feuchte Auss Luftdruck Regen Sonnenschein Regendauer Solar Windben Empfang
24.06.2021 00:00 16,3 C 15,0 C 13,4 C 87 % 1020,3 hPa 0,0 l/m 0 min 0 min 0 W/m 6,4 km/h (2 Bft) 97,87 %
24.06.2021 00:02 16,3 C 15,0 C 13,4 C 87 % 1020,3 hPa 0,0 l/m 0 min 0 min 0 W/m 6,4 km/h (2 Bft) 93,48 %
24.06.2021 00:04 16,3 C 15,0 C 13,4 C 87 % 1020,4 hPa 0,0 l/m 0 min 0 min 0 W/m 3,2 km/h (1 Bft) 95,74 %
24.06.2021 00:07 16,2 C 15,0 C 13,4 C 87 % 1020,6 hPa 0,0 l/m 0 min 0 min 0 W/m 3,2 km/h (1 Bft) 96,67 %
24.06.2021 00:08 16,2 C 15,0 C 13,4 C 87 % 1020,6 hPa 0,0 l/m 0 min 0 min 0 W/m 0,0 km/h (0 Bft) 100,00 %
24.06.2021 00:10 16,2 C 15,0 C 13,4 C 87 % 1020,7 hPa 0,0 l/m 0 min 0 min 0 W/m 3,2 km/h (1 Bft) 97,87 %
24.06.2021 00:12 16,1 C 15,0 C 13,4 C 87 % 1020,7 hPa 0,0 l/m 0 min 0 min 0 W/m 0,0 km/h (0 Bft) 97,83 %
24.06.2021 00:14 16,1 C 15,0 C 13,4 C 88 % 1020,8 hPa 0,0 l/m 0 min 0 min 0 W/m 0,0 km/h (0 Bft) 97,87 %
24.06.2021 00:16 16,1 C 15,0 C 13,4 C 88 % 1020,8 hPa 0,0 l/m 0 min 0 min 0 W/m 0,0 km/h (0 Bft) 95,74 %
24.06.2021 00:18 16,1 C 15,0 C 13,4 C 88 % 1020,8 hPa 0,0 l/m 0 min 0 min 0 W/m 3,2 km/h (1 Bft) 97,87 %
24.06.2021 00:20 16,1 C 15,0 C 13,4 C 88 % 1020,8 hPa 0,0 l/m 0 min 0 min 0 W/m 0,0 km/h (0 Bft) 97,87 %
24.06.2021 00:22 16,1 C 15,0 C 13,4 C 88 % 1020,8 hPa 0,0 l/m 0 min 0 min 0 W/m 3,2 km/h (1 Bft) 95,65 %
24.06.2021 00:24 16,1 C 15,0 C 13,4 C 88 % 1020,7 hPa 0,0 l/m 0 min 0 min 0 W/m 9,7 km/h (2 Bft) 95,74 %
24.06.2021 00:26 16,0 C 15,0 C 13,4 C 88 % 1020,8 hPa 0,0 l/m 0 min 0 min 0 W/m 6,4 km/h (2 Bft) 97,87 %
24.06.2021 00:28 16,0 C 15,0 C 13,4 C 88 % 1020,8 hPa 0,0 l/m 0 min 0 min 0 W/m 0,0 km/h (0 Bft) 95,74 %
24.06.2021 00:30 16,0 C 15,0 C 13,4 C 88 % 1020,8 hPa 0,0 l/m 0 min 0 min 0 W/m 3,2 km/h (1 Bft) 97,87 %
24.06.2021 00:32 16,0 C 15,0 C 13,4 C 89 % 1020,9 hPa 0,0 l/m 0 min 0 min 0 W/m 0,0 km/h (0 Bft) 95,74 %
24.06.2021 00:34 16,0 C 15,0 C 13,4 C 88 % 1020,8 hPa 0,0 l/m 0 min 0 min 0 W/m 0,0 km/h (0 Bft) 95,65 %
24.06.2021 00:36 16,0 C 15,0 C 13,4 C 88 % 1020,8 hPa 0,0 l/m 0 min 0 min 0 W/m 0,0 km/h (0 Bft) 98,11 %
24.06.2021 00:38 15,9 C 15,0 C 13,4 C 89 % 1020,8 hPa 0,0 l/m 0 min 0 min 0 W/m 6,4 km/h (2 Bft) 97,56 %
24.06.2021 00:40 15,9 C 15,0 C 13,4 C 89 % 1020,8 hPa 0,0 l/m 0 min 0 min 0 W/m 9,7 km/h (2 Bft) 97,87 %
24.06.2021 00:42 15,9 C 15,0 C 13,4 C 89 % 1020,8 hPa 0,0 l/m 0 min 0 min 0 W/m 0,0 km/h (0 Bft) 100,00 %
24.06.2021 00:44 15,9 C 15,0 C 13,4 C 89 % 1020,8 hPa 0,0 l/m 0 min 0 min 0 W/m 3,2 km/h (1 Bft) 96,15 %
24.06.2021 00:46 15,9 C 15,0 C 13,4 C 89 % 1020,8 hPa 0,0 l/m 0 min 0 min 0 W/m 6,4 km/h (2 Bft) 100,00 %
24.06.2021 00:48 15,9 C 15,0 C 13,4 C 89 % 1020,8 hPa 0,0 l/m 0 min 0 min 0 W/m 3,2 km/h (1 Bft) 97,87 %
24.06.2021 00:50 15,9 C 15,0 C 13,4 C 89 % 1020,8 hPa 0,0 l/m 0 min 0 min 0 W/m 6,4 km/h (2 Bft) 100,00 %
24.06.2021 00:52 15,9 C 15,0 C 13,4 C 89 % 1020,8 hPa 0,0 l/m 0 min 0 min 0 W/m 0,0 km/h (0 Bft) 100,00 %
24.06.2021 00:54 15,9 C 15,0 C 13,4 C 89 % 1020,8 hPa 0,0 l/m 0 min 0 min 0 W/m 3,2 km/h (1 Bft) 97,87 %
24.06.2021 00:56 15,9 C 15,0 C 13,4 C 89 % 1020,8 hPa 0,0 l/m 0 min 0 min 0 W/m 6,4 km/h (2 Bft) 100,00 %
24.06.2021 00:58 15,9 C 15,0 C 13,9 C 89 % 1020,7 hPa 0,0 l/m 0 min 0 min 0 W/m 6,4 km/h (2 Bft) 97,83 %
24.06.2021 01:00 15,9 C 15,0 C 13,9 C 89 % 1020,8 hPa 0,0 l/m 0 min 0 min 0 W/m 6,4 km/h (2 Bft) 100,00 %
24.06.2021 01:02 15,9 C 15,0 C 13,9 C 89 % 1020,7 hPa 0,0 l/m 0 min 0 min 0 W/m 0,0 km/h (0 Bft) 100,00 %
24.06.2021 01:04 15,9 C 15,0 C 13,9 C 89 % 1020,8 hPa 0,0 l/m 0 min 0 min 0 W/m 3,2 km/h (1 Bft) 95,74 %
24.06.2021 01:06 15,9 C 15,6 C 13,9 C 90 % 1020,8 hPa 0,0 l/m 0 min 0 min 0 W/m 6,4 km/h (2 Bft) 98,11 %
24.06.2021 01:08 15,9 C 15,0 C 13,9 C 90 % 1020,7 hPa 0,0 l/m 0 min 0 min 0 W/m 3,2 km/h (1 Bft) 100,00 %
24.06.2021 01:10 15,9 C 15,0 C 13,9 C 90 % 1020,7 hPa 0,0 l/m 0 min 0 min 0 W/m 3,2 km/h (1 Bft) 100,00 %
24.06.2021 01:12 15,9 C 15,6 C 13,9 C 90 % 1020,7 hPa 0,0 l/m 0 min 0 min 0 W/m 6,4 km/h (2 Bft) 100,00 %
24.06.2021 01:14 15,9 C 15,6 C 13,9 C 90 % 1020,7 hPa 0,0 l/m 0 min 0 min 0 W/m 9,7 km/h (2 Bft) 100,00 %
24.06.2021 01:16 15,9 C 15,6 C 13,9 C 90 % 1020,7 hPa 0,0 l/m 0 min 0 min 0 W/m 3,2 km/h (1 Bft) 100,00 %
24.06.2021 01:18 15,9 C 15,6 C 13,9 C 90 % 1020,7 hPa 0,0 l/m 0 min 0 min 0 W/m 6,4 km/h (2 Bft) 100,00 %
24.06.2021 01:20 15,9 C 15,6 C 13,9 C 90 % 1020,7 hPa 0,0 l/m 0 min 0 min 0 W/m 3,2 km/h (1 Bft) 100,00 %
24.06.2021 01:22 15,9 C 15,6 C 13,9 C 89 % 1020,7 hPa 0,0 l/m 0 min 0 min 0 W/m 0,0 km/h (0 Bft) 97,87 %
24.06.2021 01:24 15,9 C 15,0 C 13,9 C 89 % 1020,7 hPa 0,0 l/m 0 min 0 min 0 W/m 0,0 km/h (0 Bft) 100,00 %
24.06.2021 01:26 15,9 C 15,0 C 13,9 C 89 % 1020,6 hPa 0,0 l/m 0 min 0 min 0 W/m 0,0 km/h (0 Bft) 100,00 %
24.06.2021 01:28 15,9 C 15,0 C 13,9 C 89 % 1020,7 hPa 0,0 l/m 0 min 0 min 0 W/m 3,2 km/h (1 Bft) 100,00 %
24.06.2021 01:30 15,9 C 15,0 C 13,4 C 89 % 1020,6 hPa 0,0 l/m 0 min 0 min 0 W/m 3,2 km/h (1 Bft) 100,00 %
24.06.2021 01:32 15,9 C 15,0 C 13,4 C 89 % 1020,7 hPa 0,0 l/m 0 min 0 min 0 W/m 0,0 km/h (0 Bft) 97,83 %
24.06.2021 01:34 15,9 C 15,0 C 13,4 C 89 % 1020,8 hPa 0,0 l/m 0 min 0 min 0 W/m 3,2 km/h (1 Bft) 100,00 %
24.06.2021 01:36 15,9 C 15,0 C 13,4 C 89 % 1020,8 hPa 0,0 l/m 0 min 0 min 0 W/m 0,0 km/h (0 Bft) 100,00 %
24.06.2021 01:38 15,9 C 15,0 C 13,4 C 89 % 1020,9 hPa 0,0 l/m 0 min 0 min 0 W/m 0,0 km/h (0 Bft) 100,00 %
24.06.2021 01:40 15,9 C 15,0 C 13,4 C 90 % 1020,8 hPa 0,0 l/m 0 min 0 min 0 W/m 3,2 km/h (1 Bft) 95,74 %
24.06.2021 01:42 15,9 C 15,0 C 13,4 C 90 % 1020,8 hPa 0,0 l/m 0 min 0 min 0 W/m 3,2 km/h (1 Bft) 97,83 %
24.06.2021 01:44 15,9 C 15,0 C 13,4 C 90 % 1020,8 hPa 0,0 l/m 0 min 0 min 0 W/m 0,0 km/h (0 Bft) 97,87 %
24.06.2021 01:46 15,9 C 15,0 C 13,4 C 90 % 1020,8 hPa 0,0 l/m 0 min 0 min 0 W/m 0,0 km/h (0 Bft) 95,12 %
24.06.2021 01:48 15,9 C 15,0 C 13,4 C 90 % 1020,8 hPa 0,0 l/m 0 min 0 min 0 W/m 0,0 km/h (0 Bft) 97,87 %
24.06.2021 01:50 15,9 C 15,0 C 13,4 C 90 % 1020,8 hPa 0,0 l/m 0 min 0 min 0 W/m 0,0 km/h (0 Bft) 97,87 %
24.06.2021 01:52 15,9 C 15,0 C 13,4 C 90 % 1020,9 hPa 0,0 l/m 0 min 0 min 0 W/m 3,2 km/h (1 Bft) 93,62 %
24.06.2021 01:54 15,9 C 15,0 C 13,4 C 90 % 1020,7 hPa 0,0 l/m 0 min 0 min 0 W/m 3,2 km/h (1 Bft) 95,74 %
24.06.2021 01:56 15,9 C 15,0 C 13,4 C 90 % 1020,7 hPa 0,0 l/m 0 min 0 min 0 W/m 3,2 km/h (1 Bft) 95,65 %
24.06.2021 01:58 15,9 C 15,0 C 13,4 C 90 % 1020,7 hPa 0,0 l/m 0 min 0 min 0 W/m 6,4 km/h (2 Bft) 93,62 %
24.06.2021 02:00 15,9 C 15,0 C 13,9 C 90 % 1020,7 hPa 0,0 l/m 0 min 0 min 0 W/m 6,4 km/h (2 Bft) 93,62 %
24.06.2021 02:02 15,9 C 15,0 C 13,9 C 90 % 1020,7 hPa 0,0 l/m 0 min 0 min 0 W/m 6,4 km/h (2 Bft) 95,74 %
24.06.2021 02:04 15,8 C 15,0 C 13,9 C 90 % 1020,8 hPa 0,0 l/m 0 min 0 min 0 W/m 6,4 km/h (2 Bft) 93,62 %
24.06.2021 02:06 15,8 C 15,0 C 13,9 C 90 % 1020,8 hPa 0,0 l/m 0 min 0 min 0 W/m 6,4 km/h (2 Bft) 94,23 %
24.06.2021 02:08 15,8 C 15,0 C 13,9 C 90 % 1020,8 hPa 0,0 l/m 0 min 0 min 0 W/m 0,0 km/h (0 Bft) 91,49 %
24.06.2021 02:10 15,8 C 15,0 C 13,9 C 90 % 1020,8 hPa 0,0 l/m 0 min 0 min 0 W/m 6,4 km/h (2 Bft) 95,74 %
24.06.2021 02:12 15,8 C 15,0 C 13,9 C 90 % 1020,8 hPa 0,0 l/m 0 min 0 min 0 W/m 3,2 km/h (1 Bft) 95,74 %
24.06.2021 02:14 15,8 C 15,0 C 13,9 C 90 % 1020,8 hPa 0,0 l/m 0 min 0 min 0 W/m 3,2 km/h (1 Bft) 93,62 %
24.06.2021 02:16 15,9 C 15,0 C 13,9 C 90 % 1020,7 hPa 0,0 l/m 0 min 0 min 0 W/m 3,2 km/h (1 Bft) 95,12 %
24.06.2021 02:18 15,9 C 15,6 C 13,9 C 90 % 1020,7 hPa 0,0 l/m 0 min 0 min 0 W/m 3,2 km/h (1 Bft) 95,74 %
24.06.2021 02:20 15,9 C 15,0 C 13,9 C 90 % 1020,7 hPa 0,0 l/m 0 min 0 min 0 W/m 3,2 km/h (1 Bft) 95,65 %
24.06.2021 02:22 15,9 C 15,0 C 13,9 C 89 % 1020,7 hPa 0,0 l/m 0 min 0 min 0 W/m 3,2 km/h (1 Bft) 95,74 %
24.06.2021 02:24 15,9 C 15,0 C 13,9 C 90 % 1020,7 hPa 0,0 l/m 0 min 0 min 0 W/m 9,7 km/h (2 Bft) 95,74 %
24.06.2021 02:26 15,9 C 15,0 C 13,9 C 89 % 1020,7 hPa 0,0 l/m 0 min 0 min 0 W/m 9,7 km/h (2 Bft) 97,87 %
24.06.2021 02:28 15,9 C 15,0 C 13,9 C 89 % 1020,7 hPa 0,0 l/m 0 min 0 min 0 W/m 6,4 km/h (2 Bft) 97,87 %
24.06.2021 02:30 15,9 C 15,0 C 13,9 C 90 % 1020,7 hPa 0,0 l/m 0 min 0 min 0 W/m 6,4 km/h (2 Bft) 97,83 %
24.06.2021 02:32 15,9 C 15,0 C 13,9 C 89 % 1020,7 hPa 0,0 l/m 0 min 0 min 0 W/m 3,2 km/h (1 Bft) 97,87 %
24.06.2021 02:34 15,9 C 15,0 C 13,9 C 89 % 1020,7 hPa 0,0 l/m 0 min 0 min 0 W/m 6,4 km/h (2 Bft) 95,74 %
24.06.2021 02:36 15,9 C 15,0 C 13,9 C 89 % 1020,7 hPa 0,0 l/m 0 min 0 min 0 W/m 3,2 km/h (1 Bft) 98,11 %
24.06.2021 02:38 15,8 C 15,0 C 13,9 C 89 % 1020,8 hPa 0,0 l/m 0 min 0 min 0 W/m 3,2 km/h (1 Bft) 97,87 %
24.06.2021 02:40 15,9 C 15,0 C 13,9 C 89 % 1020,7 hPa 0,0 l/m 0 min 0 min 0 W/m 6,4 km/h (2 Bft) 97,83 %
24.06.2021 02:42 15,8 C 15,0 C 13,9 C 89 % 1020,7 hPa 0,0 l/m 0 min 0 min 0 W/m 3,2 km/h (1 Bft) 97,87 %
24.06.2021 02:44 15,8 C 15,0 C 13,9 C 89 % 1020,7 hPa 0,0 l/m 0 min 0 min 0 W/m 3,2 km/h (1 Bft) 97,87 %
24.06.2021 02:46 15,8 C 15,0 C 13,4 C 89 % 1020,7 hPa 0,0 l/m 0 min 0 min 0 W/m 6,4 km/h (2 Bft) 97,56 %
24.06.2021 02:48 15,8 C 15,0 C 13,4 C 89 % 1020,7 hPa 0,0 l/m 0 min 0 min 0 W/m 3,2 km/h (1 Bft) 100,00 %
24.06.2021 02:50 15,8 C 15,0 C 13,4 C 89 % 1020,7 hPa 0,0 l/m 0 min 0 min 0 W/m 6,4 km/h (2 Bft) 97,87 %
24.06.2021 02:52 15,8 C 15,0 C 13,4 C 89 % 1020,7 hPa 0,0 l/m 0 min 0 min 0 W/m 6,4 km/h (2 Bft) 95,74 %
24.06.2021 02:54 15,8 C 15,0 C 13,4 C 89 % 1020,8 hPa 0,0 l/m 0 min 0 min 0 W/m 3,2 km/h (1 Bft) 100,00 %
24.06.2021 02:56 15,8 C 15,0 C 13,4 C 89 % 1020,8 hPa 0,0 l/m 0 min 0 min 0 W/m 6,4 km/h (2 Bft) 100,00 %
24.06.2021 02:58 15,8 C 15,0 C 13,4 C 89 % 1020,7 hPa 0,0 l/m 0 min 0 min 0 W/m 6,4 km/h (2 Bft) 100,00 %
24.06.2021 03:00 15,8 C 15,0 C 13,4 C 89 % 1020,7 hPa 0,0 l/m 0 min 0 min 0 W/m 3,2 km/h (1 Bft) 100,00 %
24.06.2021 03:02 15,8 C 15,0 C 13,4 C 90 % 1020,7 hPa 0,0 l/m 0 min 0 min 0 W/m 6,4 km/h (2 Bft) 100,00 %
24.06.2021 03:04 15,7 C 15,0 C 13,4 C 90 % 1020,7 hPa 0,0 l/m 0 min 0 min 0 W/m 3,2 km/h (1 Bft) 100,00 %
24.06.2021 03:06 15,7 C 15,0 C 13,4 C 90 % 1020,7 hPa 0,0 l/m 0 min 0 min 0 W/m 0,0 km/h (0 Bft) 98,08 %
24.06.2021 03:08 15,7 C 15,0 C 13,4 C 90 % 1020,8 hPa 0,0 l/m 0 min 0 min 0 W/m 6,4 km/h (2 Bft) 97,92 %
24.06.2021 03:10 15,7 C 15,0 C 13,4 C 90 % 1020,7 hPa 0,0 l/m 0 min 0 min 0 W/m 6,4 km/h (2 Bft) 97,87 %
24.06.2021 03:12 15,7 C 15,0 C 13,4 C 90 % 1020,7 hPa 0,0 l/m 0 min 0 min 0 W/m 3,2 km/h (1 Bft) 100,00 %
24.06.2021 03:14 15,7 C 15,0 C 13,4 C 89 % 1020,6 hPa 0,0 l/m 0 min 0 min 0 W/m 3,2 km/h (1 Bft) 100,00 %
24.06.2021 03:16 15,6 C 15,0 C 13,4 C 89 % 1020,6 hPa 0,0 l/m 0 min 0 min 0 W/m 9,7 km/h (2 Bft) 100,00 %
24.06.2021 03:18 15,6 C 15,0 C 13,4 C 89 % 1020,6 hPa 0,0 l/m 0 min 0 min 0 W/m 3,2 km/h (1 Bft) 100,00 %
24.06.2021 03:20 15,6 C 15,0 C 13,4 C 89 % 1020,7 hPa 0,0 l/m 0 min 0 min 0 W/m 3,2 km/h (1 Bft) 100,00 %
24.06.2021 03:22 15,6 C 15,0 C 13,4 C 90 % 1020,6 hPa 0,0 l/m 0 min 0 min 0 W/m 9,7 km/h (2 Bft) 100,00 %
24.06.2021 03:24 15,6 C 15,0 C 13,4 C 90 % 1020,6 hPa 0,0 l/m 0 min 0 min 0 W/m 9,7 km/h (2 Bft) 100,00 %
24.06.2021 03:26 15,6 C 15,0 C 13,4 C 90 % 1020,6 hPa 0,0 l/m 0 min 0 min 0 W/m 3,2 km/h (1 Bft) 100,00 %
24.06.2021 03:28 15,6 C 14,4 C 13,4 C 90 % 1020,6 hPa 0,0 l/m 0 min 0 min 0 W/m 6,4 km/h (2 Bft) 100,00 %
24.06.2021 03:30 15,6 C 14,4 C 13,4 C 90 % 1020,6 hPa 0,0 l/m 0 min 0 min 0 W/m 9,7 km/h (2 Bft) 100,00 %
24.06.2021 03:32 15,5 C 14,4 C 13,4 C 90 % 1020,5 hPa 0,0 l/m 0 min 0 min 0 W/m 6,4 km/h (2 Bft) 97,87 %
24.06.2021 03:34 15,5 C 14,4 C 13,4 C 90 % 1020,5 hPa 0,0 l/m 0 min 0 min 0 W/m 6,4 km/h (2 Bft) 100,00 %
24.06.2021 03:36 15,5 C 14,4 C 13,4 C 90 % 1020,5 hPa 0,0 l/m 0 min 0 min 0 W/m 12,9 km/h (3 Bft) 100,00 %
24.06.2021 03:38 15,5 C 14,4 C 13,4 C 90 % 1020,4 hPa 0,0 l/m 0 min 0 min 0 W/m 6,4 km/h (2 Bft) 100,00 %
24.06.2021 03:40 15,4 C 14,4 C 13,4 C 90 % 1020,4 hPa 0,0 l/m 0 min 0 min 0 W/m 9,7 km/h (2 Bft) 100,00 %
24.06.2021 03:42 15,4 C 14,4 C 13,4 C 90 % 1020,4 hPa 0,0 l/m 0 min 0 min 0 W/m 6,4 km/h (2 Bft) 100,00 %
24.06.2021 03:44 15,4 C 14,4 C 13,4 C 90 % 1020,5 hPa 0,0 l/m 0 min 0 min 0 W/m 9,7 km/h (2 Bft) 100,00 %
24.06.2021 03:46 15,4 C 14,4 C 13,4 C 90 % 1020,5 hPa 0,0 l/m 0 min 0 min 0 W/m 6,4 km/h (2 Bft) 97,87 %
24.06.2021 03:48 15,4 C 14,4 C 13,4 C 90 % 1020,5 hPa 0,0 l/m 0 min 0 min 0 W/m 6,4 km/h (2 Bft) 100,00 %
24.06.2021 03:50 15,4 C 14,4 C 13,4 C 90 % 1020,5 hPa 0,0 l/m 0 min 0 min 0 W/m 6,4 km/h (2 Bft) 97,83 %
24.06.2021 03:52 15,3 C 14,4 C 13,4 C 90 % 1020,5 hPa 0,0 l/m 0 min 0 min 0 W/m 6,4 km/h (2 Bft) 100,00 %
24.06.2021 03:54 15,3 C 14,4 C 13,4 C 90 % 1020,5 hPa 0,0 l/m 0 min 0 min 0 W/m 6,4 km/h (2 Bft) 100,00 %
24.06.2021 03:56 15,3 C 14,4 C 13,4 C 90 % 1020,5 hPa 0,0 l/m 0 min 0 min 0 W/m 6,4 km/h (2 Bft) 100,00 %
24.06.2021 03:58 15,3 C 14,4 C 13,4 C 90 % 1020,5 hPa 0,0 l/m 0 min 0 min 0 W/m 6,4 km/h (2 Bft) 100,00 %
24.06.2021 04:00 15,3 C 14,4 C 13,4 C 90 % 1020,5 hPa 0,0 l/m 0 min 0 min 0 W/m 6,4 km/h (2 Bft) 100,00 %
24.06.2021 04:05 15,2 C 14,4 C 13,4 C 90 % 1020,4 hPa 0,0 l/m 0 min 0 min 0 W/m 9,7 km/h (2 Bft) 98,39 %
24.06.2021 04:06 15,2 C 14,4 C 13,4 C 90 % 1020,4 hPa 0,0 l/m 0 min 0 min 0 W/m 6,4 km/h (2 Bft) 95,65 %
24.06.2021 04:08 15,2 C 14,4 C 13,4 C 90 % 1020,3 hPa 0,0 l/m 0 min 0 min 0 W/m 9,7 km/h (2 Bft) 97,87 %
24.06.2021 04:10 15,1 C 14,4 C 13,4 C 90 % 1020,3 hPa 0,0 l/m 0 min 0 min 0 W/m 6,4 km/h (2 Bft) 97,87 %
24.06.2021 04:12 15,1 C 14,4 C 13,4 C 90 % 1020,3 hPa 0,0 l/m 0 min 0 min 0 W/m 6,4 km/h (2 Bft) 100,00 %
24.06.2021 04:14 15,1 C 14,4 C 13,4 C 90 % 1020,4 hPa 0,0 l/m 0 min 0 min 0 W/m 9,7 km/h (2 Bft) 97,83 %
24.06.2021 04:16 15,1 C 14,4 C 12,8 C 90 % 1020,3 hPa 0,0 l/m 0 min 0 min 0 W/m 3,2 km/h (1 Bft) 97,87 %
24.06.2021 04:18 15,1 C 14,4 C 12,8 C 91 % 1020,4 hPa 0,0 l/m 0 min 0 min 0 W/m 6,4 km/h (2 Bft) 100,00 %
24.06.2021 04:20 15,1 C 14,4 C 12,8 C 91 % 1020,4 hPa 0,0 l/m 0 min 0 min 0 W/m 6,4 km/h (2 Bft) 100,00 %
24.06.2021 04:22 15,1 C 13,9 C 12,8 C 91 % 1020,4 hPa 0,0 l/m 0 min 0 min 0 W/m 6,4 km/h (2 Bft) 95,74 %
24.06.2021 04:24 15,0 C 13,9 C 12,8 C 91 % 1020,3 hPa 0,0 l/m 0 min 0 min 0 W/m 9,7 km/h (2 Bft) 100,00 %
24.06.2021 04:26 15,0 C 13,9 C 12,8 C 91 % 1020,3 hPa 0,0 l/m 0 min 0 min 0 W/m 6,4 km/h (2 Bft) 95,65 %
24.06.2021 04:28 15,0 C 13,9 C 12,8 C 91 % 1020,3 hPa 0,0 l/m 0 min 0 min 0 W/m 6,4 km/h (2 Bft) 95,74 %
24.06.2021 04:30 15,0 C 13,9 C 12,8 C 91 % 1020,3 hPa 0,0 l/m 0 min 0 min 0 W/m 6,4 km/h (2 Bft) 95,74 %
24.06.2021 04:32 15,0 C 13,9 C 12,8 C 91 % 1020,3 hPa 0,0 l/m 0 min 0 min 0 W/m 6,4 km/h (2 Bft) 95,74 %
24.06.2021 04:34 15,0 C 13,9 C 12,8 C 91 % 1020,2 hPa 0,0 l/m 0 min 0 min 0 W/m 6,4 km/h (2 Bft) 93,62 %
24.06.2021 04:36 14,9 C 13,9 C 12,8 C 91 % 1020,2 hPa 0,0 l/m 0 min 0 min 0 W/m 6,4 km/h (2 Bft) 95,65 %
24.06.2021 04:38 14,9 C 13,9 C 12,8 C 91 % 1020,1 hPa 0,0 l/m 0 min 0 min 0 W/m 9,7 km/h (2 Bft) 95,74 %
24.06.2021 04:40 14,9 C 13,9 C 12,8 C 91 % 1020,1 hPa 0,0 l/m 0 min 0 min 0 W/m 6,4 km/h (2 Bft) 93,62 %
24.06.2021 04:42 14,9 C 13,9 C 12,8 C 91 % 1020,1 hPa 0,0 l/m 0 min 0 min 0 W/m 9,7 km/h (2 Bft) 93,62 %
24.06.2021 04:44 14,8 C 13,9 C 12,8 C 91 % 1020,1 hPa 0,0 l/m 0 min 0 min 0 W/m 6,4 km/h (2 Bft) 95,74 %
24.06.2021 04:46 14,8 C 13,9 C 12,8 C 91 % 1020,1 hPa 0,0 l/m 0 min 0 min 0 W/m 9,7 km/h (2 Bft) 93,62 %
24.06.2021 04:48 14,8 C 13,9 C 12,8 C 91 % 1020,0 hPa 0,0 l/m 0 min 0 min 0 W/m 12,9 km/h (3 Bft) 93,48 %
24.06.2021 04:50 14,7 C 13,9 C 12,8 C 91 % 1020,0 hPa 0,0 l/m 0 min 0 min 0 W/m 9,7 km/h (2 Bft) 89,36 %
24.06.2021 04:52 14,7 C 13,9 C 12,3 C 91 % 1020,0 hPa 0,0 l/m 0 min 0 min 0 W/m 12,9 km/h (3 Bft) 93,62 %
24.06.2021 04:54 14,6 C 13,9 C 12,3 C 91 % 1020,0 hPa 0,0 l/m 0 min 0 min 0 W/m 6,4 km/h (2 Bft) 93,62 %
24.06.2021 04:56 14,6 C 13,3 C 12,3 C 91 % 1020,0 hPa 0,0 l/m 0 min 0 min 0 W/m 9,7 km/h (2 Bft) 93,62 %
24.06.2021 04:58 14,6 C 13,3 C 12,3 C 91 % 1020,0 hPa 0,0 l/m 0 min 0 min 0 W/m 3,2 km/h (1 Bft) 93,62 %
24.06.2021 05:00 14,5 C 13,3 C 12,3 C 91 % 1020,0 hPa 0,0 l/m 0 min 0 min 0 W/m 9,7 km/h (2 Bft) 91,30 %
24.06.2021 05:02 14,5 C 13,3 C 12,3 C 91 % 1020,0 hPa 0,0 l/m 0 min 0 min 0 W/m 6,4 km/h (2 Bft) 95,45 %
24.06.2021 05:04 14,5 C 13,3 C 12,3 C 92 % 1020,0 hPa 0,0 l/m 0 min 0 min 0 W/m 6,4 km/h (2 Bft) 91,49 %
24.06.2021 05:06 14,4 C 13,3 C 12,3 C 92 % 1020,0 hPa 0,0 l/m 0 min 0 min 0 W/m 16,1 km/h (3 Bft) 95,74 %
24.06.2021 05:08 14,4 C 13,3 C 12,3 C 92 % 1020,0 hPa 0,0 l/m 0 min 0 min 0 W/m 9,7 km/h (2 Bft) 91,49 %
24.06.2021 05:10 14,4 C 13,3 C 12,3 C 92 % 1020,1 hPa 0,0 l/m 0 min 0 min 0 W/m 6,4 km/h (2 Bft) 93,62 %
24.06.2021 05:12 14,3 C 13,3 C 12,3 C 92 % 1020,1 hPa 0,0 l/m 0 min 0 min 0 W/m 9,7 km/h (2 Bft) 95,65 %
24.06.2021 05:14 14,3 C 13,3 C 12,3 C 92 % 1020,2 hPa 0,0 l/m 0 min 0 min 0 W/m 3,2 km/h (1 Bft) 95,74 %
24.06.2021 05:16 14,3 C 13,3 C 12,3 C 92 % 1020,1 hPa 0,0 l/m 0 min 0 min 0 W/m 3,2 km/h (1 Bft) 95,74 %
24.06.2021 05:18 14,2 C 13,3 C 12,3 C 92 % 1020,1 hPa 0,0 l/m 0 min 0 min 0 W/m 3,2 km/h (1 Bft) 95,74 %
24.06.2021 05:20 14,2 C 13,3 C 12,3 C 92 % 1020,2 hPa 0,0 l/m 0 min 0 min 0 W/m 9,7 km/h (2 Bft) 95,74 %
24.06.2021 05:22 14,2 C 13,3 C 12,3 C 92 % 1020,1 hPa 0,0 l/m 0 min 0 min 0 W/m 6,4 km/h (2 Bft) 95,74 %
24.06.2021 05:24 14,2 C 13,3 C 12,3 C 92 % 1020,1 hPa 0,0 l/m 0 min 0 min 3 W/m 3,2 km/h (1 Bft) 95,65 %
24.06.2021 05:26 14,2 C 13,3 C 12,3 C 92 % 1020,0 hPa 0,0 l/m 0 min 0 min 5 W/m 6,4 km/h (2 Bft) 91,49 %
24.06.2021 05:28 14,2 C 13,3 C 12,3 C 92 % 1020,1 hPa 0,0 l/m 0 min 0 min 5 W/m 9,7 km/h (2 Bft) 93,62 %
24.06.2021 05:30 14,2 C 13,3 C 12,3 C 92 % 1020,1 hPa 0,0 l/m 0 min 0 min 7 W/m 3,2 km/h (1 Bft) 95,74 %
24.06.2021 05:32 14,2 C 13,3 C 12,3 C 92 % 1020,1 hPa 0,0 l/m 0 min 0 min 7 W/m 16,1 km/h (3 Bft) 95,74 %
24.06.2021 05:34 14,2 C 13,3 C 12,3 C 92 % 1020,1 hPa 0,0 l/m 0 min 0 min 7 W/m 12,9 km/h (3 Bft) 95,74 %
24.06.2021 05:36 14,2 C 13,3 C 12,3 C 93 % 1020,1 hPa 0,0 l/m 0 min 0 min 8 W/m 9,7 km/h (2 Bft) 91,30 %
24.06.2021 05:38 14,1 C 13,3 C 12,3 C 93 % 1020,1 hPa 0,0 l/m 0 min 0 min 10 W/m 16,1 km/h (3 Bft) 97,87 %
24.06.2021 05:40 14,1 C 13,3 C 12,3 C 93 % 1020,0 hPa 0,0 l/m 0 min 0 min 11 W/m 12,9 km/h (3 Bft) 95,74 %
24.06.2021 05:42 14,1 C 13,3 C 12,3 C 93 % 1020,0 hPa 0,0 l/m 0 min 0 min 11 W/m 9,7 km/h (2 Bft) 97,87 %
24.06.2021 05:44 14,1 C 13,3 C 12,3 C 93 % 1020,0 hPa 0,0 l/m 0 min 0 min 12 W/m 12,9 km/h (3 Bft) 95,74 %
24.06.2021 05:46 14,0 C 13,3 C 12,3 C 93 % 1020,0 hPa 0,0 l/m 0 min 0 min 13 W/m 12,9 km/h (3 Bft) 96,15 %
24.06.2021 05:48 14,0 C 13,3 C 12,3 C 93 % 1020,1 hPa 0,0 l/m 0 min 0 min 14 W/m 9,7 km/h (2 Bft) 97,87 %
24.06.2021 05:50 14,0 C 13,3 C 12,3 C 93 % 1020,0 hPa 0,0 l/m 0 min 0 min 15 W/m 6,4 km/h (2 Bft) 97,87 %
24.06.2021 05:52 14,0 C 13,3 C 12,3 C 93 % 1020,1 hPa 0,0 l/m 0 min 0 min 17 W/m 6,4 km/h (2 Bft) 95,12 %
24.06.2021 05:54 14,0 C 13,3 C 12,3 C 93 % 1020,1 hPa 0,0 l/m 0 min 0 min 18 W/m 9,7 km/h (2 Bft) 97,87 %
24.06.2021 05:56 14,0 C 13,3 C 12,3 C 93 % 1020,1 hPa 0,0 l/m 0 min 0 min 19 W/m 9,7 km/h (2 Bft) 97,87 %
24.06.2021 05:58 14,0 C 13,3 C 12,8 C 93 % 1020,1 hPa 0,0 l/m 0 min 0 min 19 W/m 6,4 km/h (2 Bft) 95,92 %
24.06.2021 06:00 14,1 C 13,9 C 12,8 C 93 % 1020,0 hPa 0,0 l/m 0 min 0 min 21 W/m 6,4 km/h (2 Bft) 100,00 %
24.06.2021 06:02 14,1 C 13,9 C 12,8 C 93 % 1020,0 hPa 0,0 l/m 0 min 0 min 22 W/m 6,4 km/h (2 Bft) 98,00 %
24.06.2021 06:04 14,1 C 13,9 C 12,8 C 93 % 1020,0 hPa 0,0 l/m 0 min 0 min 21 W/m 9,7 km/h (2 Bft) 97,87 %
24.06.2021 06:08 14,1 C 13,3 C 12,8 C 93 % 1020,0 hPa 0,0 l/m 0 min 0 min 21 W/m 9,7 km/h (2 Bft) 98,94 %
24.06.2021 06:10 14,1 C 13,3 C 12,8 C 94 % 1020,0 hPa 0,0 l/m 0 min 0 min 25 W/m 9,7 km/h (2 Bft) 100,00 %
24.06.2021 06:12 14,1 C 13,3 C 12,8 C 94 % 1019,9 hPa 0,0 l/m 0 min 0 min 28 W/m 9,7 km/h (2 Bft) 100,00 %
24.06.2021 06:14 14,1 C 13,9 C 12,8 C 94 % 1019,9 hPa 0,0 l/m 0 min 0 min 31 W/m 9,7 km/h (2 Bft) 100,00 %
24.06.2021 06:16 14,1 C 13,9 C 12,8 C 94 % 1019,9 hPa 0,0 l/m 0 min 0 min 32 W/m 9,7 km/h (2 Bft) 95,74 %
24.06.2021 06:18 14,2 C 13,9 C 12,8 C 94 % 1019,9 hPa 0,0 l/m 0 min 0 min 35 W/m 12,9 km/h (3 Bft) 97,56 %
24.06.2021 06:20 14,2 C 13,9 C 12,8 C 94 % 1019,9 hPa 0,0 l/m 0 min 0 min 39 W/m 12,9 km/h (3 Bft) 100,00 %
24.06.2021 06:22 14,2 C 13,9 C 12,8 C 94 % 1019,9 hPa 0,0 l/m 0 min 0 min 43 W/m 16,1 km/h (3 Bft) 100,00 %
24.06.2021 06:24 14,2 C 13,9 C 12,8 C 94 % 1019,9 hPa 0,0 l/m 0 min 0 min 47 W/m 9,7 km/h (2 Bft) 100,00 %
24.06.2021 06:26 14,2 C 13,9 C 12,8 C 94 % 1019,9 hPa 0,0 l/m 0 min 0 min 49 W/m 9,7 km/h (2 Bft) 95,74 %
24.06.2021 06:28 14,2 C 13,9 C 12,8 C 94 % 1019,8 hPa 0,0 l/m 0 min 0 min 48 W/m 9,7 km/h (2 Bft) 97,87 %
24.06.2021 06:30 14,2 C 13,9 C 12,8 C 94 % 1019,8 hPa 0,0 l/m 0 min 0 min 53 W/m 6,4 km/h (2 Bft) 100,00 %
24.06.2021 06:32 14,2 C 13,9 C 12,8 C 94 % 1019,9 hPa 0,0 l/m 0 min 0 min 59 W/m 6,4 km/h (2 Bft) 100,00 %
24.06.2021 06:34 14,2 C 13,9 C 12,8 C 94 % 1019,9 hPa 0,0 l/m 0 min 0 min 62 W/m 9,7 km/h (2 Bft) 100,00 %
24.06.2021 06:36 14,2 C 13,9 C 12,8 C 94 % 1019,8 hPa 0,0 l/m 0 min 0 min 60 W/m 9,7 km/h (2 Bft) 95,74 %
24.06.2021 06:38 14,2 C 13,9 C 12,8 C 94 % 1019,8 hPa 0,0 l/m 0 min 0 min 54 W/m 6,4 km/h (2 Bft) 100,00 %
24.06.2021 06:40 14,3 C 13,9 C 12,8 C 94 % 1019,7 hPa 0,0 l/m 0 min 0 min 49 W/m 9,7 km/h (2 Bft) 100,00 %
24.06.2021 06:42 14,3 C 13,9 C 12,8 C 94 % 1019,7 hPa 0,0 l/m 0 min 0 min 51 W/m 9,7 km/h (2 Bft) 100,00 %
24.06.2021 06:44 14,3 C 13,9 C 12,8 C 94 % 1019,8 hPa 0,0 l/m 0 min 0 min 51 W/m 3,2 km/h (1 Bft) 100,00 %
24.06.2021 06:46 14,3 C 13,9 C 12,8 C 94 % 1019,9 hPa 0,0 l/m 0 min 0 min 51 W/m 3,2 km/h (1 Bft) 100,00 %
24.06.2021 06:48 14,4 C 13,9 C 12,8 C 94 % 1019,9 hPa 0,0 l/m 0 min 0 min 49 W/m 12,9 km/h (3 Bft) 100,00 %
24.06.2021 06:50 14,4 C 13,9 C 12,8 C 94 % 1019,9 hPa 0,0 l/m 0 min 0 min 49 W/m 9,7 km/h (2 Bft) 100,00 %
24.06.2021 06:52 14,4 C 13,9 C 12,8 C 94 % 1019,9 hPa 0,0 l/m 0 min 0 min 48 W/m 19,3 km/h (3 Bft) 100,00 %
24.06.2021 06:54 14,4 C 13,9 C 12,8 C 94 % 1019,9 hPa 0,0 l/m 0 min 0 min 46 W/m 12,9 km/h (3 Bft) 97,87 %
24.06.2021 06:56 14,4 C 13,9 C 12,8 C 94 % 1019,9 hPa 0,0 l/m 0 min 0 min 44 W/m 12,9 km/h (3 Bft) 100,00 %
24.06.2021 06:58 14,4 C 13,9 C 12,8 C 94 % 1019,8 hPa 0,0 l/m 0 min 0 min 43 W/m 6,4 km/h (2 Bft) 97,73 %
24.06.2021 07:00 14,4 C 13,9 C 13,4 C 94 % 1019,9 hPa 0,0 l/m 0 min 0 min 45 W/m 9,7 km/h (2 Bft) 100,00 %
24.06.2021 07:02 14,5 C 13,9 C 13,4 C 93 % 1019,8 hPa 0,0 l/m 0 min 0 min 47 W/m 9,7 km/h (2 Bft) 97,37 %
24.06.2021 07:04 14,4 C 13,9 C 13,4 C 93 % 1019,9 hPa 0,0 l/m 0 min 0 min 51 W/m 12,9 km/h (3 Bft) 97,87 %
24.06.2021 07:06 14,5 C 14,4 C 13,4 C 93 % 1019,9 hPa 0,0 l/m 0 min 0 min 55 W/m 3,2 km/h (1 Bft) 97,87 %
24.06.2021 07:08 14,5 C 14,4 C 13,4 C 93 % 1019,8 hPa 0,0 l/m 0 min 0 min 57 W/m 9,7 km/h (2 Bft) 100,00 %
24.06.2021 07:10 14,5 C 14,4 C 13,4 C 93 % 1019,8 hPa 0,0 l/m 0 min 0 min 57 W/m 9,7 km/h (2 Bft) 97,83 %
24.06.2021 07:12 14,5 C 14,4 C 13,4 C 93 % 1019,9 hPa 0,0 l/m 0 min 0 min 61 W/m 9,7 km/h (2 Bft) 97,87 %
24.06.2021 07:14 14,5 C 14,4 C 13,4 C 93 % 1019,8 hPa 0,0 l/m 0 min 0 min 62 W/m 9,7 km/h (2 Bft) 97,87 %
24.06.2021 07:16 14,5 C 14,4 C 13,4 C 93 % 1019,8 hPa 0,0 l/m 0 min 0 min 64 W/m 12,9 km/h (3 Bft) 97,87 %
24.06.2021 07:18 14,6 C 14,4 C 13,4 C 93 % 1019,8 hPa 0,0 l/m 0 min 0 min 68 W/m 16,1 km/h (3 Bft) 97,87 %
24.06.2021 07:20 14,6 C 14,4 C 13,4 C 93 % 1019,8 hPa 0,0 l/m 0 min 0 min 68 W/m 16,1 km/h (3 Bft) 97,87 %
24.06.2021 07:22 14,6 C 14,4 C 13,4 C 93 % 1019,8 hPa 0,0 l/m 0 min 0 min 61 W/m 22,5 km/h (4 Bft) 97,83 %
24.06.2021 07:24 14,6 C 14,4 C 13,4 C 93 % 1019,8 hPa 0,0 l/m 0 min 0 min 50 W/m 12,9 km/h (3 Bft) 95,74 %
24.06.2021 07:26 14,6 C 14,4 C 13,4 C 93 % 1019,8 hPa 0,0 l/m 0 min 0 min 50 W/m 9,7 km/h (2 Bft) 93,62 %
24.06.2021 07:28 14,6 C 14,4 C 13,4 C 93 % 1019,8 hPa 0,0 l/m 0 min 0 min 53 W/m 9,7 km/h (2 Bft) 95,74 %
24.06.2021 07:30 14,7 C 14,4 C 13,4 C 93 % 1019,8 hPa 0,0 l/m 0 min 0 min 61 W/m 12,9 km/h (3 Bft) 97,87 %
24.06.2021 07:32 14,7 C 14,4 C 13,4 C 93 % 1019,8 hPa 0,0 l/m 0 min 0 min 74 W/m 12,9 km/h (3 Bft) 97,87 %
24.06.2021 07:34 14,7 C 14,4 C 13,4 C 93 % 1019,8 hPa 0,0 l/m 0 min 0 min 84 W/m 19,3 km/h (3 Bft) 97,83 %
24.06.2021 07:36 14,8 C 14,4 C 13,4 C 93 % 1019,8 hPa 0,0 l/m 0 min 0 min 86 W/m 9,7 km/h (2 Bft) 97,87 %
24.06.2021 07:38 14,8 C 14,4 C 13,4 C 93 % 1019,8 hPa 0,0 l/m 0 min 0 min 103 W/m 9,7 km/h (2 Bft) 95,74 %
24.06.2021 07:40 14,8 C 15,0 C 13,4 C 93 % 1019,8 hPa 0,0 l/m 2 min 0 min 174 W/m 9,7 km/h (2 Bft) 97,87 %
24.06.2021 07:42 14,9 C 15,0 C 13,9 C 93 % 1019,8 hPa 0,0 l/m 2 min 0 min 235 W/m 9,7 km/h (2 Bft) 95,74 %
24.06.2021 07:44 14,9 C 15,0 C 13,9 C 93 % 1019,9 hPa 0,0 l/m 2 min 0 min 249 W/m 16,1 km/h (3 Bft) 95,65 %
24.06.2021 07:46 15,0 C 15,0 C 13,9 C 93 % 1019,9 hPa 0,0 l/m 2 min 0 min 266 W/m 9,7 km/h (2 Bft) 95,74 %
24.06.2021 07:48 15,0 C 15,6 C 13,9 C 93 % 1019,9 hPa 0,0 l/m 2 min 0 min 279 W/m 3,2 km/h (1 Bft) 93,62 %
24.06.2021 07:50 15,1 C 15,6 C 13,9 C 93 % 1019,9 hPa 0,0 l/m 2 min 0 min 290 W/m 9,7 km/h (2 Bft) 95,74 %
24.06.2021 07:52 15,2 C 15,6 C 14,5 C 93 % 1019,9 hPa 0,0 l/m 2 min 0 min 287 W/m 9,7 km/h (2 Bft) 91,49 %
24.06.2021 07:54 15,3 C 15,6 C 14,5 C 93 % 1019,9 hPa 0,0 l/m 2 min 0 min 269 W/m 9,7 km/h (2 Bft) 95,74 %
24.06.2021 07:56 15,4 C 15,6 C 14,5 C 93 % 1019,9 hPa 0,0 l/m 2 min 0 min 218 W/m 16,1 km/h (3 Bft) 95,65 %
24.06.2021 07:58 15,4 C 15,6 C 14,5 C 92 % 1019,9 hPa 0,0 l/m 2 min 0 min 236 W/m 6,4 km/h (2 Bft) 96,00 %
24.06.2021 08:00 15,4 C 15,6 C 14,5 C 92 % 1019,9 hPa 0,0 l/m 0 min 0 min 184 W/m 9,7 km/h (2 Bft) 95,74 %
24.06.2021 08:02 15,5 C 15,6 C 14,5 C 92 % 1019,9 hPa 0,0 l/m 2 min 0 min 256 W/m 19,3 km/h (3 Bft) 93,75 %
24.06.2021 08:04 15,5 C 15,6 C 14,5 C 92 % 1019,9 hPa 0,0 l/m 2 min 0 min 258 W/m 16,1 km/h (3 Bft) 95,74 %
24.06.2021 08:06 15,6 C 15,6 C 14,5 C 92 % 1019,9 hPa 0,0 l/m 2 min 0 min 243 W/m 12,9 km/h (3 Bft) 95,65 %
24.06.2021 08:08 15,6 C 16,1 C 14,5 C 91 % 1019,9 hPa 0,0 l/m 2 min 0 min 248 W/m 19,3 km/h (3 Bft) 97,87 %
24.06.2021 08:10 15,7 C 16,7 C 14,5 C 91 % 1019,9 hPa 0,0 l/m 2 min 0 min 315 W/m 6,4 km/h (2 Bft) 97,87 %
24.06.2021 08:12 15,8 C 16,7 C 15,0 C 91 % 1019,9 hPa 0,0 l/m 2 min 0 min 302 W/m 9,7 km/h (2 Bft) 100,00 %
24.06.2021 08:14 15,9 C 17,2 C 15,0 C 91 % 1019,9 hPa 0,0 l/m 2 min 0 min 283 W/m 9,7 km/h (2 Bft) 97,87 %
24.06.2021 08:16 16,0 C 17,2 C 15,0 C 91 % 1019,9 hPa 0,0 l/m 2 min 0 min 318 W/m 9,7 km/h (2 Bft) 97,87 %
24.06.2021 08:18 16,1 C 17,2 C 15,6 C 90 % 1019,9 hPa 0,0 l/m 2 min 0 min 283 W/m 19,3 km/h (3 Bft) 97,87 %
24.06.2021 08:20 16,2 C 17,8 C 15,6 C 90 % 1019,9 hPa 0,0 l/m 2 min 0 min 327 W/m 19,3 km/h (3 Bft) 97,83 %
24.06.2021 08:22 16,3 C 17,8 C 15,6 C 90 % 1019,8 hPa 0,0 l/m 2 min 0 min 317 W/m 6,4 km/h (2 Bft) 100,00 %
24.06.2021 08:24 16,4 C 18,3 C 16,1 C 90 % 1019,8 hPa 0,0 l/m 2 min 0 min 388 W/m 12,9 km/h (3 Bft) 97,87 %
24.06.2021 08:26 16,5 C 18,3 C 16,1 C 90 % 1019,8 hPa 0,0 l/m 2 min 0 min 396 W/m 19,3 km/h (3 Bft) 100,00 %
24.06.2021 08:28 16,6 C 18,3 C 16,1 C 90 % 1019,8 hPa 0,0 l/m 2 min 0 min 378 W/m 16,1 km/h (3 Bft) 100,00 %
24.06.2021 08:30 16,6 C 18,9 C 16,1 C 89 % 1019,8 hPa 0,0 l/m 2 min 0 min 358 W/m 19,3 km/h (3 Bft) 100,00 %
24.06.2021 08:32 16,7 C 18,3 C 16,1 C 88 % 1019,8 hPa 0,0 l/m 0 min 0 min 227 W/m 12,9 km/h (3 Bft) 100,00 %
24.06.2021 08:34 16,8 C 18,3 C 16,1 C 88 % 1019,8 hPa 0,0 l/m 2 min 0 min 243 W/m 9,7 km/h (2 Bft) 97,87 %
24.06.2021 08:36 16,8 C 17,8 C 16,1 C 88 % 1019,8 hPa 0,0 l/m 2 min 0 min 276 W/m 12,9 km/h (3 Bft) 100,00 %
24.06.2021 08:38 16,8 C 18,3 C 16,1 C 88 % 1019,8 hPa 0,0 l/m 2 min 0 min 370 W/m 12,9 km/h (3 Bft) 100,00 %
24.06.2021 08:40 16,8 C 18,3 C 16,1 C 88 % 1019,8 hPa 0,0 l/m 2 min 0 min 289 W/m 19,3 km/h (3 Bft) 100,00 %
24.06.2021 08:42 16,9 C 18,3 C 16,1 C 87 % 1019,8 hPa 0,0 l/m 2 min 0 min 262 W/m 12,9 km/h (3 Bft) 100,00 %
24.06.2021 08:44 16,9 C 17,8 C 16,1 C 87 % 1019,8 hPa 0,0 l/m 0 min 0 min 229 W/m 9,7 km/h (2 Bft) 100,00 %
24.06.2021 08:46 16,9 C 17,8 C 16,1 C 87 % 1019,8 hPa 0,0 l/m 0 min 0 min 214 W/m 6,4 km/h (2 Bft) 100,00 %
24.06.2021 08:48 16,9 C 17,8 C 16,1 C 87 % 1019,8 hPa 0,0 l/m 0 min 0 min 224 W/m 6,4 km/h (2 Bft) 100,00 %
24.06.2021 08:50 17,0 C 17,8 C 16,1 C 87 % 1019,8 hPa 0,0 l/m 2 min 0 min 281 W/m 12,9 km/h (3 Bft) 95,74 %
24.06.2021 08:52 17,0 C 18,3 C 16,1 C 87 % 1019,8 hPa 0,0 l/m 2 min 0 min 378 W/m 12,9 km/h (3 Bft) 100,00 %
24.06.2021 08:54 17,1 C 18,3 C 16,1 C 87 % 1019,7 hPa 0,0 l/m 2 min 0 min 280 W/m 16,1 km/h (3 Bft) 100,00 %
24.06.2021 08:56 17,1 C 18,3 C 16,1 C 87 % 1019,8 hPa 0,0 l/m 0 min 0 min 253 W/m 12,9 km/h (3 Bft) 100,00 %
24.06.2021 08:58 17,1 C 17,8 C 16,1 C 87 % 1019,8 hPa 0,0 l/m 0 min 0 min 194 W/m 9,7 km/h (2 Bft) 97,87 %
24.06.2021 09:00 17,1 C 17,8 C 16,1 C 87 % 1019,8 hPa 0,0 l/m 0 min 0 min 214 W/m 12,9 km/h (3 Bft) 100,00 %
24.06.2021 09:02 17,1 C 17,8 C 16,1 C 87 % 1019,7 hPa 0,0 l/m 0 min 0 min 232 W/m 12,9 km/h (3 Bft) 100,00 %
24.06.2021 09:04 17,1 C 17,8 C 16,1 C 87 % 1019,8 hPa 0,0 l/m 0 min 0 min 216 W/m 9,7 km/h (2 Bft) 100,00 %
24.06.2021 09:06 17,1 C 17,2 C 15,6 C 86 % 1019,8 hPa 0,0 l/m 0 min 0 min 213 W/m 6,4 km/h (2 Bft) 95,65 %
24.06.2021 09:08 17,1 C 17,2 C 15,6 C 86 % 1019,8 hPa 0,0 l/m 0 min 0 min 174 W/m 6,4 km/h (2 Bft) 100,00 %
24.06.2021 09:10 17,1 C 17,2 C 15,6 C 87 % 1019,7 hPa 0,0 l/m 0 min 0 min 173 W/m 12,9 km/h (3 Bft) 97,96 %
24.06.2021 09:12 17,0 C 17,2 C 15,6 C 87 % 1019,8 hPa 0,0 l/m 0 min 0 min 255 W/m 19,3 km/h (3 Bft) 100,00 %
24.06.2021 09:14 17,0 C 17,8 C 16,1 C 87 % 1019,7 hPa 0,0 l/m 2 min 0 min 305 W/m 12,9 km/h (3 Bft) 97,87 %
24.06.2021 09:16 17,1 C 17,8 C 15,6 C 87 % 1019,7 hPa 0,0 l/m 0 min 0 min 202 W/m 12,9 km/h (3 Bft) 97,87 %
24.06.2021 09:18 17,1 C 17,8 C 16,1 C 87 % 1019,8 hPa 0,0 l/m 0 min 0 min 230 W/m 9,7 km/h (2 Bft) 97,83 %
24.06.2021 09:20 17,1 C 18,9 C 16,1 C 87 % 1019,8 hPa 0,0 l/m 2 min 0 min 289 W/m 12,9 km/h (3 Bft) 97,87 %
24.06.2021 09:22 17,1 C 18,9 C 16,1 C 86 % 1019,8 hPa 0,0 l/m 2 min 0 min 306 W/m 16,1 km/h (3 Bft) 97,87 %
24.06.2021 09:24 17,2 C 19,4 C 16,7 C 87 % 1019,8 hPa 0,0 l/m 2 min 0 min 473 W/m 12,9 km/h (3 Bft) 97,87 %
24.06.2021 09:26 17,3 C 19,4 C 16,7 C 87 % 1019,8 hPa 0,0 l/m 2 min 0 min 331 W/m 16,1 km/h (3 Bft) 97,87 %
24.06.2021 09:28 17,4 C 19,4 C 16,7 C 87 % 1019,8 hPa 0,0 l/m 0 min 0 min 276 W/m 9,7 km/h (2 Bft) 97,83 %
24.06.2021 09:30 17,4 C 19,4 C 16,7 C 87 % 1019,8 hPa 0,0 l/m 2 min 0 min 309 W/m 12,9 km/h (3 Bft) 97,87 %
24.06.2021 09:32 17,5 C 18,9 C 16,7 C 87 % 1019,8 hPa 0,0 l/m 2 min 0 min 341 W/m 9,7 km/h (2 Bft) 95,74 %
24.06.2021 09:34 17,5 C 18,9 C 16,7 C 86 % 1019,7 hPa 0,0 l/m 2 min 0 min 334 W/m 12,9 km/h (3 Bft) 97,87 %
24.06.2021 09:36 17,6 C 18,9 C 16,7 C 86 % 1019,8 hPa 0,0 l/m 2 min 0 min 332 W/m 9,7 km/h (2 Bft) 97,87 %
24.06.2021 09:38 17,6 C 19,4 C 16,7 C 86 % 1019,7 hPa 0,0 l/m 2 min 0 min 361 W/m 12,9 km/h (3 Bft) 97,87 %
24.06.2021 09:40 17,7 C 20,0 C 17,3 C 86 % 1019,7 hPa 0,0 l/m 2 min 0 min 568 W/m 12,9 km/h (3 Bft) 97,83 %
24.06.2021 09:42 17,9 C 21,1 C 17,8 C 86 % 1019,7 hPa 0,0 l/m 2 min 0 min 573 W/m 22,5 km/h (4 Bft) 97,87 %
24.06.2021 09:44 18,0 C 21,1 C 18,4 C 85 % 1019,7 hPa 0,0 l/m 2 min 0 min 536 W/m 19,3 km/h (3 Bft) 95,74 %
24.06.2021 09:46 18,0 C 21,1 C 18,4 C 85 % 1019,7 hPa 0,0 l/m 2 min 0 min 503 W/m 9,7 km/h (2 Bft) 100,00 %
24.06.2021 09:48 18,1 C 21,7 C 18,9 C 85 % 1019,7 hPa 0,0 l/m 2 min 0 min 568 W/m 6,4 km/h (2 Bft) 97,87 %
24.06.2021 09:50 18,3 C 21,7 C 18,9 C 85 % 1019,7 hPa 0,0 l/m 2 min 0 min 646 W/m 16,1 km/h (3 Bft) 95,74 %
24.06.2021 09:52 18,4 C 21,1 C 18,4 C 84 % 1019,7 hPa 0,0 l/m 2 min 0 min 488 W/m 22,5 km/h (4 Bft) 97,83 %
24.06.2021 09:54 18,4 C 20,6 C 17,8 C 84 % 1019,7 hPa 0,0 l/m 0 min 0 min 296 W/m 12,9 km/h (3 Bft) 97,87 %
24.06.2021 09:56 18,4 C 20,0 C 17,8 C 83 % 1019,7 hPa 0,0 l/m 0 min 0 min 309 W/m 22,5 km/h (4 Bft) 97,87 %
24.06.2021 09:58 18,4 C 20,0 C 17,8 C 83 % 1019,7 hPa 0,0 l/m 2 min 0 min 356 W/m 12,9 km/h (3 Bft) 95,74 %
24.06.2021 10:00 18,4 C 19,4 C 17,3 C 83 % 1019,7 hPa 0,0 l/m 0 min 0 min 313 W/m 25,7 km/h (4 Bft) 97,87 %
24.06.2021 10:02 18,4 C 18,9 C 17,3 C 83 % 1019,7 hPa 0,0 l/m 0 min 0 min 315 W/m 19,3 km/h (3 Bft) 97,87 %
24.06.2021 10:04 18,4 C 20,0 C 17,8 C 83 % 1019,6 hPa 0,0 l/m 2 min 0 min 551 W/m 12,9 km/h (3 Bft) 97,83 %
24.06.2021 10:06 18,4 C 20,6 C 18,9 C 83 % 1019,7 hPa 0,0 l/m 2 min 0 min 635 W/m 12,9 km/h (3 Bft) 97,87 %
24.06.2021 10:08 18,4 C 21,1 C 19,5 C 83 % 1019,6 hPa 0,0 l/m 2 min 0 min 739 W/m 22,5 km/h (4 Bft) 97,87 %
24.06.2021 10:10 18,5 C 21,7 C 20,0 C 83 % 1019,6 hPa 0,0 l/m 2 min 0 min 690 W/m 19,3 km/h (3 Bft) 97,87 %
24.06.2021 10:12 18,6 C 21,1 C 19,5 C 83 % 1019,7 hPa 0,0 l/m 2 min 0 min 486 W/m 12,9 km/h (3 Bft) 95,74 %
24.06.2021 10:14 18,6 C 21,1 C 18,9 C 83 % 1019,7 hPa 0,0 l/m 2 min 0 min 382 W/m 16,1 km/h (3 Bft) 95,65 %
24.06.2021 10:16 18,7 C 20,6 C 18,4 C 83 % 1019,6 hPa 0,0 l/m 2 min 0 min 371 W/m 12,9 km/h (3 Bft) 91,49 %
24.06.2021 10:18 18,6 C 20,0 C 17,8 C 83 % 1019,7 hPa 0,0 l/m 0 min 0 min 231 W/m 16,1 km/h (3 Bft) 95,74 %
24.06.2021 10:20 18,6 C 19,4 C 17,3 C 82 % 1019,7 hPa 0,0 l/m 0 min 0 min 252 W/m 12,9 km/h (3 Bft) 89,36 %
24.06.2021 10:22 18,5 C 19,4 C 17,8 C 82 % 1019,7 hPa 0,0 l/m 0 min 0 min 354 W/m 12,9 km/h (3 Bft) 97,87 %
24.06.2021 10:24 18,5 C 20,0 C 18,4 C 83 % 1019,7 hPa 0,0 l/m 2 min 0 min 590 W/m 19,3 km/h (3 Bft) 97,87 %
24.06.2021 10:26 18,5 C 19,4 C 17,8 C 83 % 1019,7 hPa 0,0 l/m 0 min 0 min 342 W/m 19,3 km/h (3 Bft) 95,65 %
24.06.2021 10:28 18,6 C 20,0 C 18,4 C 83 % 1019,7 hPa 0,0 l/m 2 min 0 min 424 W/m 12,9 km/h (3 Bft) 97,87 %
24.06.2021 10:30 18,6 C 20,0 C 18,4 C 83 % 1019,7 hPa 0,0 l/m 2 min 0 min 466 W/m 25,7 km/h (4 Bft) 93,62 %
24.06.2021 10:32 18,6 C 19,4 C 17,8 C 83 % 1019,7 hPa 0,0 l/m 0 min 0 min 259 W/m 16,1 km/h (3 Bft) 97,87 %
24.06.2021 10:34 18,6 C 19,4 C 17,3 C 82 % 1019,7 hPa 0,0 l/m 0 min 0 min 234 W/m 16,1 km/h (3 Bft) 95,74 %
24.06.2021 10:36 18,5 C 19,4 C 17,3 C 83 % 1019,8 hPa 0,0 l/m 0 min 0 min 220 W/m 9,7 km/h (2 Bft) 95,74 %
24.06.2021 10:38 18,5 C 18,9 C 16,7 C 83 % 1019,7 hPa 0,0 l/m 0 min 0 min 150 W/m 16,1 km/h (3 Bft) 93,48 %
24.06.2021 10:40 18,5 C 18,9 C 16,7 C 83 % 1019,8 hPa 0,0 l/m 0 min 0 min 138 W/m 6,4 km/h (2 Bft) 97,87 %
24.06.2021 10:42 18,5 C 18,9 C 16,7 C 83 % 1019,7 hPa 0,0 l/m 0 min 0 min 144 W/m 6,4 km/h (2 Bft) 97,87 %
24.06.2021 10:44 18,5 C 18,3 C 16,7 C 83 % 1019,7 hPa 0,0 l/m 0 min 0 min 197 W/m 6,4 km/h (2 Bft) 93,62 %
24.06.2021 10:46 18,4 C 18,3 C 16,7 C 83 % 1019,7 hPa 0,0 l/m 0 min 0 min 224 W/m 6,4 km/h (2 Bft) 95,74 %
24.06.2021 10:48 18,4 C 18,3 C 16,7 C 83 % 1019,7 hPa 0,0 l/m 0 min 0 min 225 W/m 9,7 km/h (2 Bft) 97,87 %
24.06.2021 10:50 18,4 C 18,3 C 16,7 C 83 % 1019,7 hPa 0,0 l/m 0 min 0 min 210 W/m 9,7 km/h (2 Bft) 97,83 %
24.06.2021 10:52 18,4 C 18,9 C 16,7 C 83 % 1019,7 hPa 0,0 l/m 0 min 0 min 227 W/m 6,4 km/h (2 Bft) 97,87 %
24.06.2021 10:54 18,4 C 18,9 C 16,7 C 84 % 1019,8 hPa 0,0 l/m 0 min 0 min 294 W/m 6,4 km/h (2 Bft) 95,74 %
24.06.2021 10:56 18,4 C 19,4 C 17,3 C 84 % 1019,8 hPa 0,0 l/m 0 min 0 min 371 W/m 9,7 km/h (2 Bft) 95,74 %
24.06.2021 10:58 18,4 C 19,4 C 17,3 C 84 % 1019,8 hPa 0,0 l/m 0 min 0 min 378 W/m 6,4 km/h (2 Bft) 97,87 %
24.06.2021 11:00 18,5 C 19,4 C 17,3 C 84 % 1019,8 hPa 0,0 l/m 0 min 0 min 333 W/m 16,1 km/h (3 Bft) 97,87 %
24.06.2021 11:02 18,5 C 19,4 C 17,3 C 83 % 1019,8 hPa 0,0 l/m 0 min 0 min 309 W/m 12,9 km/h (3 Bft) 97,83 %
24.06.2021 11:04 18,5 C 18,9 C 17,3 C 83 % 1019,8 hPa 0,0 l/m 0 min 0 min 289 W/m 6,4 km/h (2 Bft) 97,87 %
24.06.2021 11:06 18,5 C 19,4 C 17,3 C 83 % 1019,8 hPa 0,0 l/m 0 min 0 min 293 W/m 9,7 km/h (2 Bft) 95,74 %
24.06.2021 11:08 18,5 C 19,4 C 17,3 C 83 % 1019,8 hPa 0,0 l/m 0 min 0 min 323 W/m 9,7 km/h (2 Bft) 98,18 %
24.06.2021 11:10 18,5 C 19,4 C 17,3 C 83 % 1019,8 hPa 0,0 l/m 0 min 0 min 296 W/m 19,3 km/h (3 Bft) 97,14 %
24.06.2021 11:12 18,5 C 19,4 C 17,3 C 83 % 1019,8 hPa 0,0 l/m 0 min 0 min 287 W/m 12,9 km/h (3 Bft) 97,87 %
24.06.2021 11:14 18,5 C 18,9 C 16,7 C 83 % 1019,8 hPa 0,0 l/m 0 min 0 min 291 W/m 16,1 km/h (3 Bft) 97,83 %
24.06.2021 11:16 18,6 C 19,4 C 16,7 C 83 % 1019,8 hPa 0,0 l/m 0 min 0 min 307 W/m 16,1 km/h (3 Bft) 97,87 %
24.06.2021 11:18 18,6 C 19,4 C 17,3 C 83 % 1019,8 hPa 0,0 l/m 0 min 0 min 342 W/m 22,5 km/h (4 Bft) 97,87 %
24.06.2021 11:20 18,6 C 19,4 C 17,3 C 83 % 1019,8 hPa 0,0 l/m 0 min 0 min 375 W/m 12,9 km/h (3 Bft) 97,87 %
24.06.2021 11:22 18,6 C 20,0 C 17,3 C 83 % 1019,8 hPa 0,0 l/m 0 min 0 min 374 W/m 9,7 km/h (2 Bft) 95,74 %
24.06.2021 11:24 18,7 C 20,0 C 17,3 C 82 % 1019,8 hPa 0,0 l/m 0 min 0 min 353 W/m 12,9 km/h (3 Bft) 95,74 %
24.06.2021 11:26 18,7 C 20,0 C 17,3 C 82 % 1019,8 hPa 0,0 l/m 0 min 0 min 335 W/m 6,4 km/h (2 Bft) 97,83 %
24.06.2021 11:28 18,8 C 20,0 C 17,3 C 82 % 1019,8 hPa 0,0 l/m 0 min 0 min 315 W/m 16,1 km/h (3 Bft) 95,74 %
24.06.2021 11:30 18,8 C 20,0 C 17,3 C 82 % 1019,8 hPa 0,0 l/m 0 min 0 min 299 W/m 12,9 km/h (3 Bft) 97,87 %
24.06.2021 11:32 18,8 C 20,0 C 17,3 C 82 % 1019,8 hPa 0,0 l/m 0 min 0 min 317 W/m 16,1 km/h (3 Bft) 97,87 %
24.06.2021 11:34 18,8 C 20,0 C 17,3 C 82 % 1019,8 hPa 0,0 l/m 0 min 0 min 373 W/m 12,9 km/h (3 Bft) 97,87 %
24.06.2021 11:36 18,9 C 20,0 C 17,3 C 82 % 1019,7 hPa 0,0 l/m 0 min 0 min 389 W/m 12,9 km/h (3 Bft) 98,28 %
24.06.2021 11:38 18,9 C 20,0 C 17,8 C 82 % 1019,7 hPa 0,0 l/m 0 min 0 min 410 W/m 6,4 km/h (2 Bft) 93,62 %
24.06.2021 11:40 19,0 C 20,6 C 18,4 C 82 % 1019,7 hPa 0,0 l/m 2 min 0 min 431 W/m 12,9 km/h (3 Bft) 97,14 %
24.06.2021 11:42 19,1 C 20,6 C 18,4 C 82 % 1019,8 hPa 0,0 l/m 2 min 0 min 485 W/m 9,7 km/h (2 Bft) 95,74 %
24.06.2021 11:44 19,2 C 21,1 C 18,9 C 82 % 1019,7 hPa 0,0 l/m 2 min 0 min 553 W/m 9,7 km/h (2 Bft) 97,87 %
24.06.2021 11:46 19,3 C 21,1 C 18,9 C 82 % 1019,7 hPa 0,0 l/m 2 min 0 min 424 W/m 9,7 km/h (2 Bft) 98,00 %
24.06.2021 11:48 19,4 C 20,6 C 18,9 C 81 % 1019,7 hPa 0,0 l/m 0 min 0 min 359 W/m 9,7 km/h (2 Bft) 97,83 %
24.06.2021 11:50 19,5 C 21,1 C 18,9 C 81 % 1019,7 hPa 0,0 l/m 2 min 0 min 454 W/m 9,7 km/h (2 Bft) 97,87 %
24.06.2021 11:52 19,6 C 22,2 C 19,5 C 80 % 1019,7 hPa 0,0 l/m 2 min 0 min 540 W/m 6,4 km/h (2 Bft) 97,87 %
24.06.2021 11:54 19,8 C 22,2 C 20,6 C 80 % 1019,7 hPa 0,0 l/m 2 min 0 min 617 W/m 16,1 km/h (3 Bft) 97,87 %
24.06.2021 11:56 19,9 C 22,2 C 20,0 C 80 % 1019,7 hPa 0,0 l/m 2 min 0 min 646 W/m 6,4 km/h (2 Bft) 97,87 %
24.06.2021 11:58 20,0 C 22,2 C 20,0 C 79 % 1019,7 hPa 0,0 l/m 2 min 0 min 514 W/m 9,7 km/h (2 Bft) 100,00 %
24.06.2021 12:00 20,1 C 22,2 C 20,0 C 79 % 1019,7 hPa 0,0 l/m 2 min 0 min 535 W/m 9,7 km/h (2 Bft) 97,83 %
24.06.2021 12:02 20,3 C 22,8 C 20,0 C 79 % 1019,7 hPa 0,0 l/m 2 min 0 min 548 W/m 9,7 km/h (2 Bft) 100,00 %
24.06.2021 12:04 20,4 C 22,8 C 19,5 C 79 % 1019,7 hPa 0,0 l/m 2 min 0 min 463 W/m 16,1 km/h (3 Bft) 97,87 %
24.06.2021 12:08 20,4 C 22,2 C 18,9 C 77 % 1019,6 hPa 0,0 l/m 0 min 0 min 415 W/m 16,1 km/h (3 Bft) 100,00 %
24.06.2021 12:10 20,5 C 22,2 C 19,5 C 77 % 1019,6 hPa 0,0 l/m 2 min 0 min 493 W/m 12,9 km/h (3 Bft) 100,00 %
24.06.2021 12:12 20,5 C 22,8 C 20,6 C 78 % 1019,5 hPa 0,0 l/m 2 min 0 min 496 W/m 12,9 km/h (3 Bft) 100,00 %
24.06.2021 12:14 20,5 C 22,8 C 20,0 C 77 % 1019,5 hPa 0,0 l/m 2 min 0 min 562 W/m 16,1 km/h (3 Bft) 82,98 %
24.06.2021 12:16 20,6 C 22,2 C 20,0 C 77 % 1019,5 hPa 0,0 l/m 0 min 0 min 274 W/m 9,7 km/h (2 Bft) 85,11 %
24.06.2021 12:18 20,6 C 21,7 C 19,5 C 77 % 1019,5 hPa 0,0 l/m 0 min 0 min 298 W/m 16,1 km/h (3 Bft) 91,49 %
24.06.2021 12:20 20,6 C 21,7 C 18,9 C 77 % 1019,6 hPa 0,0 l/m 0 min 0 min 369 W/m 9,7 km/h (2 Bft) 89,36 %
24.06.2021 12:22 20,5 C 21,7 C 19,5 C 77 % 1019,6 hPa 0,0 l/m 2 min 0 min 440 W/m 12,9 km/h (3 Bft) 93,48 %
24.06.2021 12:24 20,5 C 21,7 C 19,5 C 77 % 1019,5 hPa 0,0 l/m 0 min 0 min 433 W/m 6,4 km/h (2 Bft) 93,62 %
24.06.2021 12:26 20,6 C 21,7 C 19,5 C 77 % 1019,6 hPa 0,0 l/m 0 min 0 min 418 W/m 12,9 km/h (3 Bft) 87,23 %
24.06.2021 12:28 20,5 C 22,2 C 19,5 C 77 % 1019,6 hPa 0,0 l/m 2 min 0 min 497 W/m 9,7 km/h (2 Bft) 70,21 %
24.06.2021 12:30 20,6 C 22,2 C 19,5 C 77 % 1019,5 hPa 0,0 l/m 2 min 0 min 449 W/m 9,7 km/h (2 Bft) 87,23 %
24.06.2021 12:32 20,6 C 22,2 C 19,5 C 77 % 1019,5 hPa 0,0 l/m 0 min 0 min 398 W/m 12,9 km/h (3 Bft) 80,43 %
24.06.2021 12:34 20,7 C 22,2 C 19,5 C 77 % 1019,5 hPa 0,0 l/m 0 min 0 min 396 W/m 9,7 km/h (2 Bft) 86,96 %
24.06.2021 12:36 20,7 C 22,2 C 19,5 C 77 % 1019,6 hPa 0,0 l/m 0 min 0 min 436 W/m 6,4 km/h (2 Bft) 85,11 %
24.06.2021 12:38 20,8 C 22,8 C 20,0 C 77 % 1019,5 hPa 0,0 l/m 2 min 0 min 511 W/m 6,4 km/h (2 Bft) 100,00 %
24.06.2021 12:40 20,9 C 22,8 C 21,1 C 77 % 1019,5 hPa 0,0 l/m 2 min 0 min 589 W/m 9,7 km/h (2 Bft) 95,74 %
24.06.2021 12:42 21,0 C 22,8 C 20,6 C 76 % 1019,5 hPa 0,0 l/m 2 min 0 min 515 W/m 12,9 km/h (3 Bft) 95,74 %
24.06.2021 12:44 21,0 C 23,3 C 21,7 C 76 % 1019,5 hPa 0,0 l/m 2 min 0 min 598 W/m 9,7 km/h (2 Bft) 97,83 %
24.06.2021 12:46 21,1 C 23,9 C 23,4 C 76 % 1019,5 hPa 0,0 l/m 2 min 0 min 946 W/m 9,7 km/h (2 Bft) 89,36 %
24.06.2021 12:48 21,3 C 23,9 C 23,9 C 76 % 1019,5 hPa 0,0 l/m 2 min 0 min 1046 W/m 12,9 km/h (3 Bft) 93,62 %
24.06.2021 12:50 21,5 C 24,4 C 23,9 C 76 % 1019,4 hPa 0,0 l/m 2 min 0 min 1046 W/m 9,7 km/h (2 Bft) 91,49 %
24.06.2021 12:52 21,6 C 24,4 C 24,5 C 74 % 1019,4 hPa 0,0 l/m 2 min 0 min 1046 W/m 12,9 km/h (3 Bft) 95,74 %
24.06.2021 12:54 21,7 C 25,0 C 26,1 C 74 % 1019,4 hPa 0,0 l/m 2 min 0 min 1075 W/m 6,4 km/h (2 Bft) 93,62 %
24.06.2021 12:56 21,9 C 25,0 C 26,7 C 73 % 1019,4 hPa 0,0 l/m 2 min 0 min 1026 W/m 12,9 km/h (3 Bft) 95,65 %
24.06.2021 12:58 22,0 C 25,0 C 26,1 C 74 % 1019,4 hPa 0,0 l/m 2 min 0 min 988 W/m 19,3 km/h (3 Bft) 95,74 %
24.06.2021 13:00 22,1 C 24,4 C 25,0 C 72 % 1019,4 hPa 0,0 l/m 2 min 0 min 1049 W/m 12,9 km/h (3 Bft) 95,74 %
24.06.2021 13:02 22,1 C 23,9 C 23,4 C 72 % 1019,4 hPa 0,0 l/m 0 min 0 min 405 W/m 16,1 km/h (3 Bft) 93,62 %
24.06.2021 13:04 22,2 C 23,3 C 22,3 C 72 % 1019,4 hPa 0,0 l/m 0 min 0 min 424 W/m 19,3 km/h (3 Bft) 93,62 %
24.06.2021 13:06 22,2 C 23,9 C 22,3 C 72 % 1019,3 hPa 0,0 l/m 0 min 0 min 446 W/m 19,3 km/h (3 Bft) 93,62 %
24.06.2021 13:08 22,1 C 23,3 C 21,1 C 71 % 1019,3 hPa 0,0 l/m 0 min 0 min 376 W/m 19,3 km/h (3 Bft) 97,37 %
24.06.2021 13:10 22,1 C 23,3 C 20,6 C 73 % 1019,3 hPa 0,0 l/m 0 min 0 min 308 W/m 6,4 km/h (2 Bft) 95,65 %
24.06.2021 13:12 22,1 C 22,8 C 20,0 C 73 % 1019,3 hPa 0,0 l/m 0 min 0 min 273 W/m 12,9 km/h (3 Bft) 95,74 %
24.06.2021 13:14 22,0 C 22,8 C 20,0 C 73 % 1019,3 hPa 0,0 l/m 0 min 0 min 252 W/m 9,7 km/h (2 Bft) 95,74 %
24.06.2021 13:16 22,0 C 22,2 C 19,5 C 72 % 1019,3 hPa 0,0 l/m 0 min 0 min 247 W/m 16,1 km/h (3 Bft) 93,62 %
24.06.2021 13:18 21,9 C 22,2 C 18,9 C 72 % 1019,3 hPa 0,0 l/m 0 min 0 min 240 W/m 12,9 km/h (3 Bft) 95,74 %
24.06.2021 13:20 21,8 C 22,2 C 18,9 C 72 % 1019,3 hPa 0,0 l/m 0 min 0 min 243 W/m 12,9 km/h (3 Bft) 91,49 %
24.06.2021 13:22 21,7 C 21,7 C 18,9 C 73 % 1019,3 hPa 0,0 l/m 0 min 0 min 246 W/m 9,7 km/h (2 Bft) 89,13 %
24.06.2021 13:24 21,6 C 21,7 C 18,9 C 73 % 1019,4 hPa 0,0 l/m 0 min 0 min 241 W/m 9,7 km/h (2 Bft) 85,11 %
24.06.2021 13:26 21,5 C 21,1 C 18,4 C 73 % 1019,3 hPa 0,0 l/m 0 min 0 min 231 W/m 12,9 km/h (3 Bft) 97,87 %
24.06.2021 13:28 21,4 C 21,1 C 18,4 C 73 % 1019,4 hPa 0,0 l/m 0 min 0 min 206 W/m 12,9 km/h (3 Bft) 97,87 %
24.06.2021 13:30 21,3 C 21,1 C 18,4 C 73 % 1019,4 hPa 0,0 l/m 0 min 0 min 175 W/m 12,9 km/h (3 Bft) 95,74 %
24.06.2021 13:32 21,1 C 21,1 C 17,8 C 73 % 1019,4 hPa 0,0 l/m 0 min 0 min 177 W/m 12,9 km/h (3 Bft) 97,87 %
24.06.2021 13:34 21,0 C 21,1 C 18,4 C 74 % 1019,3 hPa 0,0 l/m 0 min 0 min 219 W/m 16,1 km/h (3 Bft) 97,83 %
24.06.2021 13:36 21,0 C 21,1 C 18,4 C 74 % 1019,3 hPa 0,0 l/m 0 min 0 min 295 W/m 6,4 km/h (2 Bft) 97,87 %
24.06.2021 13:38 20,9 C 21,1 C 18,4 C 74 % 1019,3 hPa 0,0 l/m 0 min 0 min 390 W/m 3,2 km/h (1 Bft) 95,74 %
24.06.2021 13:40 21,0 C 22,2 C 18,9 C 75 % 1019,3 hPa 0,0 l/m 2 min 0 min 489 W/m 9,7 km/h (2 Bft) 95,74 %
24.06.2021 13:42 21,0 C 22,8 C 20,6 C 75 % 1019,3 hPa 0,0 l/m 2 min 0 min 531 W/m 22,5 km/h (4 Bft) 95,74 %
24.06.2021 13:44 21,1 C 23,3 C 21,7 C 75 % 1019,3 hPa 0,0 l/m 2 min 0 min 542 W/m 16,1 km/h (3 Bft) 97,83 %
24.06.2021 13:46 21,3 C 23,9 C 21,1 C 75 % 1019,3 hPa 0,0 l/m 2 min 0 min 551 W/m 19,3 km/h (3 Bft) 97,87 %
24.06.2021 13:48 21,5 C 23,9 C 21,1 C 74 % 1019,3 hPa 0,0 l/m 2 min 0 min 579 W/m 12,9 km/h (3 Bft) 97,87 %
24.06.2021 13:50 21,6 C 23,9 C 21,1 C 73 % 1019,3 hPa 0,0 l/m 2 min 0 min 627 W/m 9,7 km/h (2 Bft) 100,00 %
24.06.2021 13:52 21,7 C 24,4 C 21,7 C 73 % 1019,2 hPa 0,0 l/m 2 min 0 min 620 W/m 9,7 km/h (2 Bft) 97,87 %
24.06.2021 13:54 21,9 C 24,4 C 21,7 C 72 % 1019,2 hPa 0,0 l/m 2 min 0 min 702 W/m 9,7 km/h (2 Bft) 97,87 %
24.06.2021 13:56 22,0 C 25,0 C 22,8 C 72 % 1019,2 hPa 0,0 l/m 2 min 0 min 817 W/m 12,9 km/h (3 Bft) 100,00 %
24.06.2021 13:58 22,2 C 25,6 C 22,8 C 72 % 1019,2 hPa 0,0 l/m 2 min 0 min 999 W/m 12,9 km/h (3 Bft) 100,00 %
24.06.2021 14:00 22,4 C 25,6 C 22,8 C 71 % 1019,2 hPa 0,0 l/m 2 min 0 min 926 W/m 9,7 km/h (2 Bft) 97,87 %
24.06.2021 14:02 22,5 C 26,7 C 22,8 C 71 % 1019,2 hPa 0,0 l/m 2 min 0 min 1016 W/m 6,4 km/h (2 Bft) 100,00 %
24.06.2021 14:04 22,6 C 26,1 C 22,3 C 70 % 1019,2 hPa 0,0 l/m 2 min 0 min 920 W/m 12,9 km/h (3 Bft) 97,87 %
24.06.2021 14:06 22,6 C 25,0 C 21,7 C 69 % 1019,2 hPa 0,0 l/m 2 min 0 min 577 W/m 12,9 km/h (3 Bft) 100,00 %
24.06.2021 14:08 22,6 C 24,4 C 21,7 C 69 % 1019,2 hPa 0,0 l/m 2 min 0 min 528 W/m 12,9 km/h (3 Bft) 100,00 %
24.06.2021 14:10 22,6 C 24,4 C 21,1 C 69 % 1019,2 hPa 0,0 l/m 2 min 0 min 558 W/m 16,1 km/h (3 Bft) 97,87 %
24.06.2021 14:12 22,6 C 24,4 C 21,1 C 69 % 1019,2 hPa 0,0 l/m 2 min 0 min 665 W/m 19,3 km/h (3 Bft) 97,87 %
24.06.2021 14:14 22,6 C 25,0 C 21,1 C 70 % 1019,1 hPa 0,0 l/m 2 min 0 min 887 W/m 16,1 km/h (3 Bft) 100,00 %
24.06.2021 14:16 22,6 C 24,4 C 21,1 C 69 % 1019,2 hPa 0,0 l/m 2 min 0 min 632 W/m 12,9 km/h (3 Bft) 100,00 %
24.06.2021 14:18 22,7 C 24,4 C 21,1 C 69 % 1019,2 hPa 0,0 l/m 2 min 0 min 664 W/m 12,9 km/h (3 Bft) 97,87 %
24.06.2021 14:20 22,8 C 25,0 C 21,1 C 68 % 1019,2 hPa 0,0 l/m 2 min 0 min 642 W/m 9,7 km/h (2 Bft) 100,00 %
24.06.2021 14:22 22,8 C 25,0 C 21,1 C 69 % 1019,1 hPa 0,0 l/m 2 min 0 min 650 W/m 12,9 km/h (3 Bft) 97,87 %
24.06.2021 14:24 22,8 C 26,1 C 21,7 C 69 % 1019,0 hPa 0,0 l/m 2 min 0 min 951 W/m 16,1 km/h (3 Bft) 97,87 %
24.06.2021 14:26 23,0 C 26,1 C 21,7 C 70 % 1019,1 hPa 0,0 l/m 2 min 0 min 941 W/m 12,9 km/h (3 Bft) 97,87 %
24.06.2021 14:28 23,1 C 25,6 C 21,7 C 70 % 1019,2 hPa 0,0 l/m 2 min 0 min 939 W/m 9,7 km/h (2 Bft) 97,87 %
24.06.2021 14:30 23,1 C 24,4 C 21,1 C 68 % 1019,1 hPa 0,0 l/m 0 min 0 min 358 W/m 12,9 km/h (3 Bft) 97,87 %
24.06.2021 14:32 23,0 C 23,9 C 20,6 C 68 % 1019,1 hPa 0,0 l/m 0 min 0 min 324 W/m 12,9 km/h (3 Bft) 97,83 %
24.06.2021 14:34 22,9 C 23,9 C 20,6 C 67 % 1019,1 hPa 0,0 l/m 0 min 0 min 294 W/m 6,4 km/h (2 Bft) 97,87 %
24.06.2021 14:36 22,9 C 23,3 C 20,0 C 68 % 1019,1 hPa 0,0 l/m 0 min 0 min 275 W/m 6,4 km/h (2 Bft) 97,87 %
24.06.2021 14:38 22,8 C 23,3 C 20,0 C 68 % 1019,1 hPa 0,0 l/m 0 min 0 min 245 W/m 6,4 km/h (2 Bft) 97,96 %
24.06.2021 14:40 22,8 C 22,8 C 20,0 C 69 % 1019,1 hPa 0,0 l/m 0 min 0 min 223 W/m 6,4 km/h (2 Bft) 95,74 %
24.06.2021 14:42 22,6 C 22,8 C 19,5 C 69 % 1019,1 hPa 0,0 l/m 0 min 0 min 209 W/m 12,9 km/h (3 Bft) 97,83 %
24.06.2021 14:44 22,6 C 22,8 C 19,5 C 69 % 1019,1 hPa 0,0 l/m 0 min 0 min 205 W/m 9,7 km/h (2 Bft) 95,74 %
24.06.2021 14:46 22,5 C 22,8 C 19,5 C 70 % 1019,1 hPa 0,0 l/m 0 min 0 min 202 W/m 16,1 km/h (3 Bft) 95,74 %
24.06.2021 14:48 22,4 C 22,2 C 19,5 C 69 % 1019,1 hPa 0,0 l/m 0 min 0 min 200 W/m 9,7 km/h (2 Bft) 97,87 %
24.06.2021 14:50 22,4 C 22,2 C 19,5 C 69 % 1019,1 hPa 0,0 l/m 0 min 0 min 211 W/m 6,4 km/h (2 Bft) 97,87 %
24.06.2021 14:52 22,3 C 22,2 C 18,9 C 70 % 1019,0 hPa 0,0 l/m 0 min 0 min 224 W/m 6,4 km/h (2 Bft) 97,87 %
24.06.2021 14:54 22,2 C 22,2 C 18,9 C 71 % 1019,1 hPa 0,0 l/m 0 min 0 min 236 W/m 9,7 km/h (2 Bft) 97,83 %
24.06.2021 14:56 22,1 C 22,2 C 19,5 C 70 % 1019,1 hPa 0,0 l/m 0 min 0 min 247 W/m 6,4 km/h (2 Bft) 97,87 %
24.06.2021 14:58 22,0 C 22,2 C 18,9 C 71 % 1019,1 hPa 0,0 l/m 0 min 0 min 268 W/m 6,4 km/h (2 Bft) 97,87 %
24.06.2021 15:00 22,0 C 22,8 C 19,5 C 72 % 1019,0 hPa 0,0 l/m 0 min 0 min 315 W/m 9,7 km/h (2 Bft) 97,87 %
24.06.2021 15:02 22,0 C 23,3 C 19,5 C 73 % 1019,0 hPa 0,0 l/m 0 min 0 min 398 W/m 6,4 km/h (2 Bft) 97,87 %
24.06.2021 15:04 22,0 C 23,9 C 19,5 C 73 % 1019,0 hPa 0,0 l/m 0 min 0 min 430 W/m 9,7 km/h (2 Bft) 97,87 %
24.06.2021 15:06 22,1 C 23,9 C 20,0 C 74 % 1018,9 hPa 0,0 l/m 0 min 0 min 430 W/m 6,4 km/h (2 Bft) 95,65 %
24.06.2021 15:08 22,1 C 23,9 C 20,0 C 72 % 1019,0 hPa 0,0 l/m 0 min 0 min 418 W/m 12,9 km/h (3 Bft) 97,87 %
24.06.2021 15:10 22,1 C 23,3 C 20,0 C 73 % 1019,0 hPa 0,0 l/m 0 min 0 min 381 W/m 6,4 km/h (2 Bft) 95,74 %
24.06.2021 15:12 22,2 C 23,9 C 20,0 C 72 % 1019,0 hPa 0,0 l/m 0 min 0 min 355 W/m 6,4 km/h (2 Bft) 97,87 %
24.06.2021 15:14 22,2 C 23,3 C 20,0 C 72 % 1019,0 hPa 0,0 l/m 0 min 0 min 366 W/m 9,7 km/h (2 Bft) 97,87 %
24.06.2021 15:16 22,2 C 23,3 C 20,0 C 71 % 1019,0 hPa 0,0 l/m 2 min 0 min 462 W/m 6,4 km/h (2 Bft) 95,74 %
24.06.2021 15:18 22,3 C 23,9 C 20,6 C 72 % 1019,0 hPa 0,0 l/m 2 min 0 min 542 W/m 9,7 km/h (2 Bft) 97,83 %
24.06.2021 15:20 22,3 C 24,4 C 20,6 C 72 % 1018,9 hPa 0,0 l/m 2 min 0 min 556 W/m 12,9 km/h (3 Bft) 97,87 %
24.06.2021 15:22 22,4 C 24,4 C 20,6 C 72 % 1018,9 hPa 0,0 l/m 2 min 0 min 466 W/m 9,7 km/h (2 Bft) 97,87 %
24.06.2021 15:24 22,4 C 23,9 C 20,6 C 71 % 1018,9 hPa 0,0 l/m 0 min 0 min 348 W/m 6,4 km/h (2 Bft) 97,87 %
24.06.2021 15:26 22,4 C 23,9 C 20,0 C 71 % 1018,9 hPa 0,0 l/m 0 min 0 min 311 W/m 9,7 km/h (2 Bft) 97,87 %
24.06.2021 15:28 22,3 C 23,3 C 20,0 C 71 % 1019,0 hPa 0,0 l/m 0 min 0 min 264 W/m 12,9 km/h (3 Bft) 97,83 %
24.06.2021 15:30 22,3 C 22,8 C 20,0 C 72 % 1018,9 hPa 0,0 l/m 0 min 0 min 226 W/m 9,7 km/h (2 Bft) 95,74 %
24.06.2021 15:32 22,2 C 22,8 C 19,5 C 71 % 1018,9 hPa 0,0 l/m 0 min 0 min 197 W/m 9,7 km/h (2 Bft) 97,87 %
24.06.2021 15:34 22,1 C 22,8 C 19,5 C 72 % 1019,0 hPa 0,0 l/m 0 min 0 min 169 W/m 6,4 km/h (2 Bft) 95,74 %
24.06.2021 15:36 22,1 C 22,2 C 18,9 C 72 % 1019,0 hPa 0,0 l/m 0 min 0 min 141 W/m 6,4 km/h (2 Bft) 97,87 %
24.06.2021 15:38 21,9 C 22,2 C 18,9 C 72 % 1019,0 hPa 0,0 l/m 0 min 0 min 125 W/m 9,7 km/h (2 Bft) 97,87 %
24.06.2021 15:40 21,8 C 21,7 C 18,9 C 72 % 1019,0 hPa 0,0 l/m 0 min 0 min 107 W/m 9,7 km/h (2 Bft) 97,83 %
24.06.2021 15:42 21,6 C 21,1 C 18,4 C 72 % 1019,0 hPa 0,0 l/m 0 min 0 min 100 W/m 6,4 km/h (2 Bft) 97,87 %
24.06.2021 15:44 21,5 C 21,1 C 18,4 C 72 % 1018,9 hPa 0,0 l/m 0 min 0 min 94 W/m 9,7 km/h (2 Bft) 97,87 %
24.06.2021 15:46 21,5 C 21,1 C 18,4 C 73 % 1018,9 hPa 0,0 l/m 0 min 0 min 87 W/m 12,9 km/h (3 Bft) 97,87 %
24.06.2021 15:48 21,4 C 20,6 C 18,4 C 72 % 1019,0 hPa 0,0 l/m 0 min 0 min 79 W/m 12,9 km/h (3 Bft) 97,87 %
24.06.2021 15:50 21,3 C 20,6 C 17,8 C 72 % 1018,9 hPa 0,0 l/m 0 min 0 min 76 W/m 9,7 km/h (2 Bft) 93,62 %
24.06.2021 15:52 21,2 C 20,6 C 17,8 C 73 % 1019,0 hPa 0,0 l/m 0 min 0 min 74 W/m 9,7 km/h (2 Bft) 97,87 %
24.06.2021 15:54 21,1 C 20,6 C 17,8 C 73 % 1019,0 hPa 0,0 l/m 0 min 0 min 75 W/m 16,1 km/h (3 Bft) 97,83 %
24.06.2021 15:56 21,0 C 20,6 C 17,8 C 73 % 1018,9 hPa 0,0 l/m 0 min 0 min 76 W/m 12,9 km/h (3 Bft) 97,87 %
24.06.2021 15:58 21,0 C 20,6 C 17,8 C 73 % 1019,0 hPa 0,0 l/m 0 min 0 min 75 W/m 6,4 km/h (2 Bft) 97,87 %
24.06.2021 16:00 21,0 C 20,6 C 17,8 C 73 % 1019,0 hPa 0,0 l/m 0 min 0 min 76 W/m 12,9 km/h (3 Bft) 97,87 %
24.06.2021 16:02 20,9 C 20,6 C 17,8 C 73 % 1019,0 hPa 0,0 l/m 0 min 0 min 82 W/m 6,4 km/h (2 Bft) 97,87 %
24.06.2021 16:04 20,9 C 20,0 C 17,8 C 73 % 1019,0 hPa 0,0 l/m 0 min 0 min 91 W/m 16,1 km/h (3 Bft) 97,83 %
24.06.2021 16:06 20,8 C 20,6 C 17,8 C 74 % 1019,0 hPa 0,0 l/m 0 min 0 min 100 W/m 6,4 km/h (2 Bft) 97,87 %
24.06.2021 16:08 20,8 C 20,6 C 17,8 C 73 % 1019,0 hPa 0,0 l/m 0 min 0 min 109 W/m 9,7 km/h (2 Bft) 97,87 %
24.06.2021 16:10 20,8 C 20,6 C 17,8 C 73 % 1019,0 hPa 0,0 l/m 0 min 0 min 121 W/m 16,1 km/h (3 Bft) 98,15 %
24.06.2021 16:12 20,8 C 20,6 C 17,8 C 73 % 1019,0 hPa 0,0 l/m 0 min 0 min 131 W/m 6,4 km/h (2 Bft) 100,00 %
24.06.2021 16:14 20,8 C 20,6 C 17,8 C 73 % 1018,9 hPa 0,0 l/m 0 min 0 min 138 W/m 6,4 km/h (2 Bft) 100,00 %
24.06.2021 16:16 20,8 C 20,6 C 17,8 C 73 % 1019,0 hPa 0,0 l/m 0 min 0 min 142 W/m 6,4 km/h (2 Bft) 97,87 %
24.06.2021 16:18 20,8 C 20,6 C 18,4 C 74 % 1019,0 hPa 0,0 l/m 0 min 0 min 156 W/m 6,4 km/h (2 Bft) 97,87 %
24.06.2021 16:20 20,9 C 20,6 C 18,4 C 74 % 1018,9 hPa 0,0 l/m 0 min 0 min 164 W/m 3,2 km/h (1 Bft) 95,74 %
24.06.2021 16:22 20,9 C 21,1 C 18,4 C 75 % 1018,9 hPa 0,0 l/m 0 min 0 min 170 W/m 9,7 km/h (2 Bft) 95,74 %
24.06.2021 16:24 20,9 C 21,1 C 18,4 C 74 % 1018,9 hPa 0,0 l/m 0 min 0 min 168 W/m 9,7 km/h (2 Bft) 97,87 %
24.06.2021 16:26 20,9 C 21,1 C 18,4 C 74 % 1018,9 hPa 0,0 l/m 0 min 0 min 157 W/m 9,7 km/h (2 Bft) 97,83 %
24.06.2021 16:28 20,9 C 21,1 C 18,4 C 74 % 1018,9 hPa 0,0 l/m 0 min 0 min 141 W/m 9,7 km/h (2 Bft) 97,87 %
24.06.2021 16:30 21,0 C 21,1 C 18,4 C 73 % 1018,9 hPa 0,0 l/m 0 min 0 min 135 W/m 9,7 km/h (2 Bft) 95,74 %
24.06.2021 16:32 21,0 C 20,6 C 18,4 C 73 % 1018,9 hPa 0,0 l/m 0 min 0 min 144 W/m 9,7 km/h (2 Bft) 97,87 %
24.06.2021 16:34 21,0 C 20,6 C 18,4 C 73 % 1018,9 hPa 0,0 l/m 0 min 0 min 145 W/m 12,9 km/h (3 Bft) 95,74 %
24.06.2021 16:36 21,0 C 20,6 C 18,4 C 73 % 1018,9 hPa 0,0 l/m 0 min 0 min 142 W/m 9,7 km/h (2 Bft) 97,83 %
24.06.2021 16:38 21,0 C 20,6 C 18,4 C 73 % 1018,9 hPa 0,0 l/m 0 min 0 min 126 W/m 16,1 km/h (3 Bft) 97,87 %
24.06.2021 16:40 20,9 C 20,6 C 18,4 C 73 % 1018,9 hPa 0,0 l/m 0 min 0 min 114 W/m 9,7 km/h (2 Bft) 95,74 %
24.06.2021 16:42 20,9 C 20,6 C 18,4 C 73 % 1018,9 hPa 0,0 l/m 0 min 0 min 113 W/m 9,7 km/h (2 Bft) 95,74 %
24.06.2021 16:44 20,9 C 20,6 C 17,8 C 74 % 1018,9 hPa 0,0 l/m 0 min 0 min 116 W/m 9,7 km/h (2 Bft) 97,87 %
24.06.2021 16:46 20,9 C 20,6 C 17,8 C 74 % 1018,9 hPa 0,0 l/m 0 min 0 min 120 W/m 19,3 km/h (3 Bft) 97,87 %
24.06.2021 16:48 20,9 C 20,6 C 18,4 C 73 % 1018,8 hPa 0,0 l/m 0 min 0 min 119 W/m 12,9 km/h (3 Bft) 97,83 %
24.06.2021 16:50 20,9 C 20,6 C 18,4 C 73 % 1018,9 hPa 0,0 l/m 0 min 0 min 109 W/m 12,9 km/h (3 Bft) 97,87 %
24.06.2021 16:52 20,9 C 20,6 C 17,8 C 74 % 1018,9 hPa 0,0 l/m 0 min 0 min 100 W/m 12,9 km/h (3 Bft) 97,87 %
24.06.2021 16:54 20,9 C 20,6 C 17,8 C 74 % 1018,9 hPa 0,0 l/m 0 min 0 min 92 W/m 12,9 km/h (3 Bft) 97,87 %
24.06.2021 16:56 20,9 C 20,6 C 17,8 C 75 % 1018,9 hPa 0,0 l/m 0 min 0 min 85 W/m 16,1 km/h (3 Bft) 97,87 %
24.06.2021 16:58 20,9 C 20,6 C 17,8 C 75 % 1018,9 hPa 0,0 l/m 0 min 0 min 77 W/m 12,9 km/h (3 Bft) 97,87 %
24.06.2021 17:00 20,9 C 20,6 C 17,8 C 76 % 1018,9 hPa 0,0 l/m 0 min 0 min 72 W/m 12,9 km/h (3 Bft) 97,83 %
24.06.2021 17:02 20,9 C 20,0 C 17,8 C 76 % 1018,9 hPa 0,0 l/m 0 min 0 min 72 W/m 9,7 km/h (2 Bft) 97,87 %
24.06.2021 17:04 20,8 C 20,0 C 17,8 C 76 % 1018,8 hPa 0,0 l/m 0 min 0 min 75 W/m 16,1 km/h (3 Bft) 97,87 %
24.06.2021 17:06 20,8 C 20,0 C 17,8 C 75 % 1018,8 hPa 0,0 l/m 0 min 0 min 77 W/m 9,7 km/h (2 Bft) 97,87 %
24.06.2021 17:08 20,8 C 20,0 C 17,3 C 76 % 1018,8 hPa 0,0 l/m 0 min 0 min 79 W/m 16,1 km/h (3 Bft) 97,87 %
24.06.2021 17:10 20,7 C 20,0 C 17,3 C 76 % 1018,8 hPa 0,0 l/m 0 min 0 min 85 W/m 9,7 km/h (2 Bft) 97,87 %
24.06.2021 17:12 20,7 C 20,0 C 17,3 C 77 % 1018,8 hPa 0,0 l/m 0 min 2 min 93 W/m 19,3 km/h (3 Bft) 97,83 %
24.06.2021 17:14 20,7 C 20,0 C 17,3 C 77 % 1018,8 hPa 0,0 l/m 0 min 0 min 104 W/m 16,1 km/h (3 Bft) 95,74 %
24.06.2021 17:16 20,6 C 20,6 C 17,3 C 77 % 1018,8 hPa 0,0 l/m 0 min 0 min 119 W/m 9,7 km/h (2 Bft) 97,87 %
24.06.2021 17:18 20,6 C 20,6 C 17,8 C 77 % 1018,8 hPa 0,0 l/m 0 min 0 min 157 W/m 9,7 km/h (2 Bft) 97,87 %
24.06.2021 17:20 20,6 C 20,6 C 17,8 C 77 % 1018,8 hPa 0,0 l/m 0 min 0 min 185 W/m 9,7 km/h (2 Bft) 100,00 %
24.06.2021 17:22 20,6 C 20,6 C 17,8 C 77 % 1018,8 hPa 0,0 l/m 0 min 0 min 190 W/m 9,7 km/h (2 Bft) 97,87 %
24.06.2021 17:24 20,6 C 21,1 C 17,8 C 77 % 1018,8 hPa 0,0 l/m 0 min 0 min 191 W/m 9,7 km/h (2 Bft) 100,00 %
24.06.2021 17:26 20,6 C 21,1 C 17,8 C 77 % 1018,8 hPa 0,0 l/m 0 min 0 min 213 W/m 9,7 km/h (2 Bft) 97,87 %
24.06.2021 17:28 20,6 C 21,1 C 17,8 C 77 % 1018,8 hPa 0,0 l/m 0 min 0 min 224 W/m 16,1 km/h (3 Bft) 100,00 %
24.06.2021 17:30 20,7 C 21,1 C 17,8 C 76 % 1018,8 hPa 0,0 l/m 0 min 0 min 206 W/m 22,5 km/h (4 Bft) 100,00 %
24.06.2021 17:32 20,7 C 21,1 C 17,8 C 76 % 1018,8 hPa 0,0 l/m 0 min 0 min 190 W/m 12,9 km/h (3 Bft) 97,87 %
24.06.2021 17:34 20,7 C 21,1 C 17,8 C 76 % 1018,7 hPa 0,0 l/m 0 min 0 min 201 W/m 19,3 km/h (3 Bft) 97,87 %
24.06.2021 17:36 20,7 C 21,1 C 17,8 C 75 % 1018,7 hPa 0,0 l/m 0 min 0 min 208 W/m 12,9 km/h (3 Bft) 95,65 %
24.06.2021 17:38 20,7 C 21,1 C 18,4 C 75 % 1018,7 hPa 0,0 l/m 0 min 0 min 210 W/m 16,1 km/h (3 Bft) 95,74 %
24.06.2021 17:40 20,7 C 21,1 C 18,4 C 75 % 1018,7 hPa 0,0 l/m 0 min 0 min 225 W/m 12,9 km/h (3 Bft) 97,87 %
24.06.2021 17:42 20,8 C 21,1 C 18,4 C 75 % 1018,7 hPa 0,0 l/m 0 min 0 min 258 W/m 12,9 km/h (3 Bft) 97,87 %
24.06.2021 17:44 20,8 C 21,7 C 18,4 C 75 % 1018,7 hPa 0,0 l/m 0 min 0 min 292 W/m 22,5 km/h (4 Bft) 97,87 %
24.06.2021 17:46 20,9 C 22,2 C 18,9 C 75 % 1018,7 hPa 0,0 l/m 2 min 0 min 351 W/m 12,9 km/h (3 Bft) 95,65 %
24.06.2021 17:48 20,9 C 22,2 C 18,9 C 75 % 1018,7 hPa 0,0 l/m 2 min 0 min 406 W/m 16,1 km/h (3 Bft) 97,87 %
24.06.2021 17:50 21,0 C 22,8 C 18,9 C 75 % 1018,7 hPa 0,0 l/m 2 min 0 min 433 W/m 16,1 km/h (3 Bft) 97,87 %
24.06.2021 17:52 21,1 C 23,3 C 19,5 C 75 % 1018,6 hPa 0,0 l/m 2 min 0 min 474 W/m 9,7 km/h (2 Bft) 95,74 %
24.06.2021 17:54 21,3 C 23,9 C 19,5 C 75 % 1018,6 hPa 0,0 l/m 2 min 0 min 473 W/m 12,9 km/h (3 Bft) 95,74 %
24.06.2021 17:56 21,4 C 23,9 C 19,5 C 74 % 1018,6 hPa 0,0 l/m 2 min 0 min 438 W/m 16,1 km/h (3 Bft) 93,62 %
24.06.2021 17:58 21,5 C 23,3 C 19,5 C 74 % 1018,5 hPa 0,0 l/m 2 min 0 min 394 W/m 16,1 km/h (3 Bft) 91,30 %
24.06.2021 18:00 21,5 C 23,3 C 19,5 C 73 % 1018,6 hPa 0,0 l/m 2 min 0 min 380 W/m 16,1 km/h (3 Bft) 93,75 %
24.06.2021 18:02 21,6 C 23,9 C 20,0 C 74 % 1018,5 hPa 0,0 l/m 2 min 0 min 440 W/m 12,9 km/h (3 Bft) 95,65 %
24.06.2021 18:04 21,8 C 25,0 C 20,0 C 73 % 1018,6 hPa 0,0 l/m 2 min 0 min 577 W/m 12,9 km/h (3 Bft) 91,49 %
24.06.2021 18:08 22,0 C 25,6 C 20,6 C 73 % 1018,5 hPa 0,0 l/m 4 min 0 min 551 W/m 19,3 km/h (3 Bft) 95,18 %
24.06.2021 18:10 22,2 C 25,0 C 20,0 C 72 % 1018,5 hPa 0,0 l/m 2 min 0 min 392 W/m 19,3 km/h (3 Bft) 91,49 %
24.06.2021 18:12 22,3 C 24,4 C 20,0 C 72 % 1018,5 hPa 0,0 l/m 2 min 0 min 296 W/m 6,4 km/h (2 Bft) 93,62 %
24.06.2021 18:14 22,3 C 23,9 C 20,0 C 73 % 1018,5 hPa 0,0 l/m 2 min 0 min 273 W/m 9,7 km/h (2 Bft) 73,91 %
24.06.2021 18:16 22,3 C 23,3 C 19,5 C 71 % 1018,5 hPa 0,0 l/m 0 min 0 min 200 W/m 9,7 km/h (2 Bft) 91,49 %
24.06.2021 18:18 22,3 C 22,8 C 19,5 C 71 % 1018,5 hPa 0,0 l/m 0 min 0 min 174 W/m 9,7 km/h (2 Bft) 93,62 %
24.06.2021 18:20 22,3 C 22,2 C 19,5 C 71 % 1018,5 hPa 0,0 l/m 0 min 0 min 166 W/m 19,3 km/h (3 Bft) 95,74 %
24.06.2021 18:22 22,1 C 21,7 C 18,9 C 70 % 1018,5 hPa 0,0 l/m 0 min 0 min 164 W/m 19,3 km/h (3 Bft) 95,74 %
24.06.2021 18:24 22,0 C 21,1 C 18,9 C 71 % 1018,4 hPa 0,0 l/m 0 min 0 min 167 W/m 12,9 km/h (3 Bft) 95,65 %
24.06.2021 18:26 21,9 C 21,1 C 18,9 C 71 % 1018,4 hPa 0,0 l/m 0 min 0 min 172 W/m 22,5 km/h (4 Bft) 95,74 %
24.06.2021 18:28 21,8 C 21,1 C 18,9 C 71 % 1018,5 hPa 0,0 l/m 0 min 0 min 159 W/m 12,9 km/h (3 Bft) 93,62 %
24.06.2021 18:30 21,7 C 20,6 C 18,4 C 71 % 1018,5 hPa 0,0 l/m 0 min 0 min 140 W/m 9,7 km/h (2 Bft) 95,74 %
24.06.2021 18:32 21,6 C 20,6 C 18,4 C 72 % 1018,5 hPa 0,0 l/m 0 min 0 min 114 W/m 9,7 km/h (2 Bft) 97,87 %
24.06.2021 18:34 21,5 C 20,6 C 18,4 C 73 % 1018,5 hPa 0,0 l/m 0 min 0 min 91 W/m 12,9 km/h (3 Bft) 95,74 %
24.06.2021 18:36 21,4 C 20,6 C 17,8 C 73 % 1018,5 hPa 0,0 l/m 0 min 0 min 84 W/m 22,5 km/h (4 Bft) 97,83 %
24.06.2021 18:38 21,4 C 20,0 C 17,8 C 73 % 1018,5 hPa 0,0 l/m 0 min 0 min 84 W/m 16,1 km/h (3 Bft) 98,04 %
24.06.2021 18:40 21,3 C 20,0 C 17,8 C 74 % 1018,5 hPa 0,0 l/m 0 min 0 min 86 W/m 9,7 km/h (2 Bft) 100,00 %
24.06.2021 18:42 21,3 C 20,0 C 17,8 C 74 % 1018,5 hPa 0,0 l/m 0 min 0 min 97 W/m 12,9 km/h (3 Bft) 100,00 %
24.06.2021 18:44 21,1 C 20,0 C 17,8 C 74 % 1018,5 hPa 0,0 l/m 0 min 0 min 99 W/m 19,3 km/h (3 Bft) 97,87 %
24.06.2021 18:46 21,1 C 20,0 C 17,8 C 74 % 1018,6 hPa 0,0 l/m 0 min 0 min 92 W/m 16,1 km/h (3 Bft) 100,00 %
24.06.2021 18:48 21,0 C 20,0 C 17,8 C 75 % 1018,7 hPa 0,0 l/m 0 min 0 min 80 W/m 9,7 km/h (2 Bft) 100,00 %
24.06.2021 18:50 21,0 C 20,0 C 17,8 C 75 % 1018,6 hPa 0,0 l/m 0 min 0 min 73 W/m 12,9 km/h (3 Bft) 100,00 %
24.06.2021 18:52 20,9 C 20,0 C 17,8 C 76 % 1018,6 hPa 0,0 l/m 0 min 0 min 66 W/m 16,1 km/h (3 Bft) 97,87 %
24.06.2021 18:54 20,8 C 20,0 C 17,8 C 76 % 1018,6 hPa 0,0 l/m 0 min 0 min 62 W/m 12,9 km/h (3 Bft) 100,00 %
24.06.2021 18:56 20,8 C 20,0 C 17,3 C 76 % 1018,6 hPa 0,0 l/m 0 min 0 min 58 W/m 16,1 km/h (3 Bft) 100,00 %
24.06.2021 18:58 20,7 C 19,4 C 17,3 C 76 % 1018,6 hPa 0,0 l/m 0 min 0 min 51 W/m 19,3 km/h (3 Bft) 100,00 %
24.06.2021 19:00 20,6 C 19,4 C 17,3 C 76 % 1018,6 hPa 0,0 l/m 0 min 0 min 45 W/m 25,7 km/h (4 Bft) 97,87 %
24.06.2021 19:02 20,5 C 19,4 C 17,3 C 76 % 1018,6 hPa 0,0 l/m 0 min 0 min 42 W/m 22,5 km/h (4 Bft) 100,00 %
24.06.2021 19:04 20,5 C 19,4 C 17,3 C 76 % 1018,6 hPa 0,0 l/m 0 min 0 min 42 W/m 19,3 km/h (3 Bft) 97,87 %
24.06.2021 19:06 20,4 C 19,4 C 17,3 C 76 % 1018,6 hPa 0,0 l/m 0 min 0 min 42 W/m 12,9 km/h (3 Bft) 100,00 %
24.06.2021 19:08 20,4 C 19,4 C 17,3 C 77 % 1018,6 hPa 0,0 l/m 0 min 0 min 40 W/m 12,9 km/h (3 Bft) 100,00 %
24.06.2021 19:10 20,3 C 19,4 C 17,3 C 77 % 1018,6 hPa 0,0 l/m 0 min 0 min 40 W/m 12,9 km/h (3 Bft) 100,00 %
24.06.2021 19:12 20,2 C 19,4 C 16,7 C 77 % 1018,6 hPa 0,0 l/m 0 min 0 min 42 W/m 12,9 km/h (3 Bft) 100,00 %
24.06.2021 19:14 20,1 C 19,4 C 16,7 C 77 % 1018,6 hPa 0,0 l/m 0 min 0 min 42 W/m 9,7 km/h (2 Bft) 100,00 %
24.06.2021 19:16 20,1 C 19,4 C 16,7 C 77 % 1018,6 hPa 0,0 l/m 0 min 0 min 42 W/m 9,7 km/h (2 Bft) 100,00 %
24.06.2021 19:18 20,0 C 18,9 C 16,7 C 77 % 1018,6 hPa 0,0 l/m 0 min 0 min 44 W/m 22,5 km/h (4 Bft) 100,00 %
24.06.2021 19:20 20,0 C 18,9 C 16,7 C 77 % 1018,6 hPa 0,0 l/m 0 min 0 min 46 W/m 12,9 km/h (3 Bft) 100,00 %
24.06.2021 19:22 20,0 C 18,9 C 16,7 C 78 % 1018,6 hPa 0,0 l/m 0 min 0 min 52 W/m 12,9 km/h (3 Bft) 100,00 %
24.06.2021 19:24 19,9 C 19,4 C 16,7 C 78 % 1018,7 hPa 0,0 l/m 0 min 0 min 68 W/m 9,7 km/h (2 Bft) 100,00 %
24.06.2021 19:26 19,9 C 19,4 C 16,7 C 78 % 1018,7 hPa 0,0 l/m 0 min 0 min 94 W/m 12,9 km/h (3 Bft) 100,00 %
24.06.2021 19:28 19,9 C 19,4 C 16,7 C 78 % 1018,7 hPa 0,0 l/m 0 min 0 min 120 W/m 12,9 km/h (3 Bft) 100,00 %
24.06.2021 19:30 19,9 C 19,4 C 17,3 C 78 % 1018,7 hPa 0,0 l/m 0 min 0 min 132 W/m 16,1 km/h (3 Bft) 100,00 %
24.06.2021 19:32 19,9 C 19,4 C 17,3 C 78 % 1018,7 hPa 0,0 l/m 0 min 0 min 134 W/m 16,1 km/h (3 Bft) 100,00 %
24.06.2021 19:34 19,9 C 19,4 C 17,3 C 78 % 1018,6 hPa 0,0 l/m 0 min 0 min 137 W/m 16,1 km/h (3 Bft) 100,00 %
24.06.2021 19:36 19,9 C 20,0 C 17,3 C 78 % 1018,6 hPa 0,0 l/m 0 min 0 min 142 W/m 9,7 km/h (2 Bft) 100,00 %
24.06.2021 19:38 20,0 C 20,0 C 17,3 C 78 % 1018,6 hPa 0,0 l/m 0 min 0 min 149 W/m 12,9 km/h (3 Bft) 100,00 %
24.06.2021 19:40 20,0 C 20,0 C 17,3 C 78 % 1018,6 hPa 0,0 l/m 2 min 0 min 156 W/m 19,3 km/h (3 Bft) 100,00 %
24.06.2021 19:42 20,0 C 20,0 C 17,3 C 78 % 1018,6 hPa 0,0 l/m 2 min 0 min 162 W/m 12,9 km/h (3 Bft) 100,00 %
24.06.2021 19:44 20,0 C 20,0 C 17,3 C 78 % 1018,6 hPa 0,0 l/m 2 min 0 min 166 W/m 16,1 km/h (3 Bft) 97,87 %
24.06.2021 19:46 20,0 C 20,0 C 17,3 C 77 % 1018,6 hPa 0,0 l/m 2 min 0 min 166 W/m 22,5 km/h (4 Bft) 97,83 %
24.06.2021 19:48 20,0 C 20,0 C 17,3 C 77 % 1018,6 hPa 0,0 l/m 2 min 0 min 181 W/m 19,3 km/h (3 Bft) 97,87 %
24.06.2021 19:50 20,1 C 20,0 C 17,3 C 77 % 1018,6 hPa 0,0 l/m 2 min 0 min 212 W/m 19,3 km/h (3 Bft) 97,87 %
24.06.2021 19:52 20,1 C 20,0 C 17,3 C 77 % 1018,6 hPa 0,0 l/m 2 min 0 min 207 W/m 25,7 km/h (4 Bft) 97,87 %
24.06.2021 19:54 20,1 C 20,0 C 17,8 C 77 % 1018,6 hPa 0,0 l/m 2 min 0 min 207 W/m 19,3 km/h (3 Bft) 97,87 %
24.06.2021 19:56 20,2 C 20,6 C 17,8 C 77 % 1018,6 hPa 0,0 l/m 2 min 0 min 206 W/m 9,7 km/h (2 Bft) 95,74 %
24.06.2021 19:58 20,2 C 20,6 C 17,8 C 77 % 1018,6 hPa 0,0 l/m 2 min 0 min 202 W/m 12,9 km/h (3 Bft) 97,83 %
24.06.2021 20:00 20,3 C 20,6 C 17,8 C 77 % 1018,7 hPa 0,0 l/m 2 min 0 min 197 W/m 9,7 km/h (2 Bft) 97,87 %
24.06.2021 20:02 20,3 C 20,6 C 17,8 C 77 % 1018,7 hPa 0,0 l/m 2 min 0 min 190 W/m 16,1 km/h (3 Bft) 97,87 %
24.06.2021 20:04 20,3 C 20,6 C 17,8 C 77 % 1018,7 hPa 0,0 l/m 2 min 0 min 169 W/m 12,9 km/h (3 Bft) 95,74 %
24.06.2021 20:06 20,3 C 20,0 C 17,8 C 76 % 1018,7 hPa 0,0 l/m 2 min 0 min 153 W/m 16,1 km/h (3 Bft) 97,87 %
24.06.2021 20:08 20,3 C 20,0 C 17,8 C 77 % 1018,7 hPa 0,0 l/m 2 min 0 min 141 W/m 16,1 km/h (3 Bft) 97,87 %
24.06.2021 20:10 20,3 C 20,0 C 17,3 C 76 % 1018,8 hPa 0,0 l/m 2 min 0 min 130 W/m 16,1 km/h (3 Bft) 95,65 %
24.06.2021 20:12 20,3 C 20,0 C 17,3 C 76 % 1018,7 hPa 0,0 l/m 2 min 0 min 120 W/m 12,9 km/h (3 Bft) 95,74 %
24.06.2021 20:14 20,3 C 20,0 C 17,3 C 76 % 1018,7 hPa 0,0 l/m 2 min 0 min 114 W/m 19,3 km/h (3 Bft) 95,74 %
24.06.2021 20:16 20,3 C 19,4 C 17,3 C 76 % 1018,7 hPa 0,0 l/m 2 min 0 min 109 W/m 16,1 km/h (3 Bft) 97,87 %
24.06.2021 20:18 20,2 C 19,4 C 17,3 C 76 % 1018,7 hPa 0,0 l/m 0 min 0 min 99 W/m 22,5 km/h (4 Bft) 95,74 %
24.06.2021 20:20 20,2 C 19,4 C 17,3 C 75 % 1018,7 hPa 0,0 l/m 0 min 0 min 89 W/m 25,7 km/h (4 Bft) 97,87 %
24.06.2021 20:22 20,1 C 19,4 C 17,3 C 75 % 1018,7 hPa 0,0 l/m 0 min 0 min 86 W/m 19,3 km/h (3 Bft) 97,83 %
24.06.2021 20:24 20,1 C 19,4 C 16,7 C 76 % 1018,7 hPa 0,0 l/m 0 min 0 min 86 W/m 9,7 km/h (2 Bft) 97,87 %
24.06.2021 20:26 20,0 C 19,4 C 16,7 C 76 % 1018,7 hPa 0,0 l/m 0 min 0 min 84 W/m 12,9 km/h (3 Bft) 97,87 %
24.06.2021 20:28 20,0 C 19,4 C 16,7 C 76 % 1018,7 hPa 0,0 l/m 0 min 0 min 82 W/m 9,7 km/h (2 Bft) 95,74 %
24.06.2021 20:30 19,9 C 19,4 C 16,7 C 76 % 1018,7 hPa 0,0 l/m 0 min 0 min 77 W/m 16,1 km/h (3 Bft) 95,74 %
24.06.2021 20:32 19,9 C 18,9 C 16,7 C 76 % 1018,8 hPa 0,0 l/m 0 min 0 min 73 W/m 12,9 km/h (3 Bft) 95,65 %
24.06.2021 20:34 19,9 C 18,9 C 16,7 C 76 % 1018,7 hPa 0,0 l/m 0 min 0 min 70 W/m 12,9 km/h (3 Bft) 95,74 %
24.06.2021 20:36 19,8 C 18,9 C 16,7 C 76 % 1018,7 hPa 0,0 l/m 0 min 0 min 67 W/m 9,7 km/h (2 Bft) 95,74 %
24.06.2021 20:38 19,8 C 18,9 C 16,7 C 76 % 1018,7 hPa 0,0 l/m 0 min 0 min 64 W/m 16,1 km/h (3 Bft) 94,00 %
24.06.2021 20:40 19,7 C 18,9 C 16,7 C 77 % 1018,7 hPa 0,0 l/m 0 min 0 min 62 W/m 12,9 km/h (3 Bft) 91,49 %
24.06.2021 20:42 19,6 C 18,9 C 16,7 C 77 % 1018,7 hPa 0,0 l/m 0 min 0 min 60 W/m 12,9 km/h (3 Bft) 91,49 %
24.06.2021 20:44 19,6 C 18,9 C 16,1 C 77 % 1018,7 hPa 0,0 l/m 0 min 0 min 60 W/m 12,9 km/h (3 Bft) 95,65 %
24.06.2021 20:46 19,5 C 18,9 C 16,1 C 77 % 1018,7 hPa 0,0 l/m 0 min 0 min 59 W/m 6,4 km/h (2 Bft) 91,49 %
24.06.2021 20:48 19,5 C 18,9 C 16,1 C 77 % 1018,7 hPa 0,0 l/m 0 min 0 min 56 W/m 6,4 km/h (2 Bft) 97,87 %
24.06.2021 20:50 19,5 C 18,9 C 16,1 C 77 % 1018,7 hPa 0,0 l/m 0 min 0 min 54 W/m 9,7 km/h (2 Bft) 95,74 %
24.06.2021 20:52 19,5 C 18,9 C 16,1 C 77 % 1018,7 hPa 0,0 l/m 0 min 0 min 52 W/m 12,9 km/h (3 Bft) 93,62 %
24.06.2021 20:54 19,4 C 18,3 C 16,1 C 78 % 1018,7 hPa 0,0 l/m 0 min 0 min 51 W/m 12,9 km/h (3 Bft) 95,74 %
24.06.2021 20:56 19,4 C 18,3 C 16,1 C 78 % 1018,7 hPa 0,0 l/m 0 min 0 min 49 W/m 16,1 km/h (3 Bft) 95,65 %
24.06.2021 20:58 19,3 C 18,3 C 16,1 C 78 % 1018,7 hPa 0,0 l/m 0 min 0 min 49 W/m 9,7 km/h (2 Bft) 95,74 %
24.06.2021 21:00 19,3 C 18,3 C 16,1 C 78 % 1018,7 hPa 0,0 l/m 0 min 0 min 49 W/m 9,7 km/h (2 Bft) 93,62 %
24.06.2021 21:02 19,3 C 18,3 C 16,1 C 78 % 1018,7 hPa 0,0 l/m 0 min 0 min 48 W/m 12,9 km/h (3 Bft) 93,62 %
24.06.2021 21:04 19,2 C 18,3 C 16,1 C 78 % 1018,7 hPa 0,0 l/m 0 min 0 min 46 W/m 6,4 km/h (2 Bft) 95,74 %
24.06.2021 21:06 19,2 C 18,3 C 16,1 C 79 % 1018,6 hPa 0,0 l/m 0 min 0 min 46 W/m 3,2 km/h (1 Bft) 95,74 %
24.06.2021 21:08 19,1 C 18,3 C 16,1 C 79 % 1018,7 hPa 0,0 l/m 2 min 0 min 46 W/m 3,2 km/h (1 Bft) 93,48 %
24.06.2021 21:10 19,1 C 18,3 C 15,6 C 79 % 1018,7 hPa 0,0 l/m 2 min 0 min 44 W/m 12,9 km/h (3 Bft) 95,74 %
24.06.2021 21:12 19,1 C 18,3 C 15,6 C 79 % 1018,8 hPa 0,0 l/m 2 min 0 min 41 W/m 9,7 km/h (2 Bft) 95,74 %
24.06.2021 21:14 19,1 C 17,8 C 15,6 C 79 % 1018,8 hPa 0,0 l/m 2 min 0 min 38 W/m 9,7 km/h (2 Bft) 93,62 %
24.06.2021 21:16 19,0 C 17,8 C 15,6 C 79 % 1018,8 hPa 0,0 l/m 0 min 0 min 34 W/m 3,2 km/h (1 Bft) 96,23 %
24.06.2021 21:18 19,0 C 17,8 C 15,6 C 79 % 1018,8 hPa 0,0 l/m 0 min 0 min 29 W/m 6,4 km/h (2 Bft) 97,83 %
24.06.2021 21:20 19,0 C 17,8 C 15,6 C 79 % 1018,8 hPa 0,0 l/m 0 min 0 min 25 W/m 9,7 km/h (2 Bft) 95,74 %
24.06.2021 21:22 18,9 C 17,8 C 15,6 C 79 % 1018,9 hPa 0,0 l/m 0 min 0 min 24 W/m 9,7 km/h (2 Bft) 97,87 %
24.06.2021 21:24 18,9 C 17,8 C 15,6 C 80 % 1018,9 hPa 0,0 l/m 0 min 0 min 21 W/m 6,4 km/h (2 Bft) 97,87 %
24.06.2021 21:26 18,8 C 17,8 C 15,6 C 80 % 1018,9 hPa 0,0 l/m 0 min 0 min 19 W/m 9,7 km/h (2 Bft) 100,00 %
24.06.2021 21:28 18,8 C 17,2 C 15,6 C 80 % 1018,9 hPa 0,0 l/m 0 min 0 min 18 W/m 3,2 km/h (1 Bft) 95,65 %
24.06.2021 21:30 18,7 C 17,2 C 15,6 C 80 % 1019,0 hPa 0,0 l/m 0 min 0 min 17 W/m 9,7 km/h (2 Bft) 100,00 %
24.06.2021 21:32 18,6 C 17,2 C 15,6 C 80 % 1019,0 hPa 0,0 l/m 0 min 0 min 16 W/m 3,2 km/h (1 Bft) 100,00 %
24.06.2021 21:34 18,6 C 17,2 C 15,0 C 80 % 1019,0 hPa 0,0 l/m 0 min 0 min 14 W/m 6,4 km/h (2 Bft) 97,87 %
24.06.2021 21:36 18,5 C 17,2 C 15,0 C 81 % 1019,0 hPa 0,0 l/m 0 min 0 min 12 W/m 3,2 km/h (1 Bft) 97,87 %
24.06.2021 21:38 18,5 C 17,2 C 15,0 C 81 % 1019,0 hPa 0,0 l/m 0 min 0 min 11 W/m 6,4 km/h (2 Bft) 100,00 %
24.06.2021 21:40 18,4 C 17,2 C 15,0 C 81 % 1019,0 hPa 0,0 l/m 0 min 0 min 11 W/m 6,4 km/h (2 Bft) 100,00 %
24.06.2021 21:42 18,4 C 17,2 C 15,0 C 81 % 1019,1 hPa 0,0 l/m 0 min 0 min 9 W/m 3,2 km/h (1 Bft) 100,00 %
24.06.2021 21:44 18,4 C 17,2 C 15,0 C 81 % 1019,2 hPa 0,0 l/m 0 min 0 min 9 W/m 3,2 km/h (1 Bft) 97,87 %
24.06.2021 21:46 18,3 C 17,2 C 15,0 C 81 % 1019,1 hPa 0,0 l/m 0 min 0 min 7 W/m 3,2 km/h (1 Bft) 100,00 %
24.06.2021 21:48 18,3 C 17,2 C 15,0 C 81 % 1019,1 hPa 0,0 l/m 0 min 0 min 7 W/m 3,2 km/h (1 Bft) 100,00 %
24.06.2021 21:50 18,3 C 16,7 C 15,0 C 81 % 1019,1 hPa 0,0 l/m 0 min 0 min 7 W/m 3,2 km/h (1 Bft) 97,87 %
24.06.2021 21:52 18,2 C 16,7 C 15,0 C 82 % 1019,1 hPa 0,0 l/m 0 min 0 min 5 W/m 3,2 km/h (1 Bft) 100,00 %
24.06.2021 21:54 18,1 C 16,7 C 15,0 C 82 % 1019,2 hPa 0,0 l/m 0 min 0 min 5 W/m 3,2 km/h (1 Bft) 100,00 %
24.06.2021 21:56 18,1 C 16,7 C 15,0 C 82 % 1019,2 hPa 0,0 l/m 0 min 0 min 5 W/m 9,7 km/h (2 Bft) 97,87 %
24.06.2021 21:58 18,0 C 16,7 C 15,0 C 83 % 1019,3 hPa 0,0 l/m 0 min 0 min 1 W/m 3,2 km/h (1 Bft) 100,00 %
24.06.2021 22:00 18,0 C 16,7 C 14,5 C 83 % 1019,3 hPa 0,0 l/m 0 min 0 min 0 W/m 3,2 km/h (1 Bft) 100,00 %
24.06.2021 22:02 17,9 C 16,7 C 14,5 C 83 % 1019,4 hPa 0,0 l/m 0 min 0 min 0 W/m 6,4 km/h (2 Bft) 97,87 %
24.06.2021 22:04 17,9 C 16,7 C 14,5 C 84 % 1019,3 hPa 0,0 l/m 0 min 0 min 0 W/m 3,2 km/h (1 Bft) 100,00 %
24.06.2021 22:06 17,8 C 16,7 C 14,5 C 84 % 1019,4 hPa 0,0 l/m 0 min 0 min 0 W/m 3,2 km/h (1 Bft) 97,83 %
24.06.2021 22:08 17,8 C 16,7 C 14,5 C 84 % 1019,4 hPa 0,0 l/m 0 min 0 min 0 W/m 6,4 km/h (2 Bft) 100,00 %
24.06.2021 22:10 17,7 C 16,7 C 14,5 C 84 % 1019,4 hPa 0,0 l/m 0 min 0 min 0 W/m 6,4 km/h (2 Bft) 100,00 %
24.06.2021 22:12 17,6 C 16,7 C 14,5 C 84 % 1019,4 hPa 0,0 l/m 0 min 0 min 0 W/m 6,4 km/h (2 Bft) 97,87 %
24.06.2021 22:14 17,6 C 16,7 C 14,5 C 84 % 1019,4 hPa 0,0 l/m 0 min 0 min 0 W/m 3,2 km/h (1 Bft) 100,00 %
24.06.2021 22:16 17,6 C 16,7 C 14,5 C 84 % 1019,5 hPa 0,0 l/m 0 min 0 min 0 W/m 3,2 km/h (1 Bft) 100,00 %
24.06.2021 22:18 17,5 C 16,7 C 14,5 C 85 % 1019,5 hPa 0,0 l/m 0 min 0 min 0 W/m 0,0 km/h (0 Bft) 100,00 %
24.06.2021 22:20 17,5 C 16,7 C 14,5 C 85 % 1019,5 hPa 0,0 l/m 0 min 0 min 0 W/m 3,2 km/h (1 Bft) 100,00 %
24.06.2021 22:22 17,5 C 16,7 C 14,5 C 85 % 1019,6 hPa 0,0 l/m 0 min 0 min 0 W/m 3,2 km/h (1 Bft) 100,00 %
24.06.2021 22:24 17,5 C 16,7 C 14,5 C 85 % 1019,6 hPa 0,0 l/m 0 min 0 min 0 W/m 3,2 km/h (1 Bft) 100,00 %
24.06.2021 22:26 17,5 C 16,7 C 14,5 C 86 % 1019,6 hPa 0,0 l/m 0 min 0 min 0 W/m 3,2 km/h (1 Bft) 100,00 %
24.06.2021 22:28 17,4 C 16,7 C 14,5 C 86 % 1019,6 hPa 0,0 l/m 0 min 0 min 0 W/m 3,2 km/h (1 Bft) 100,00 %
24.06.2021 22:30 17,4 C 16,7 C 14,5 C 86 % 1019,6 hPa 0,0 l/m 0 min 0 min 0 W/m 3,2 km/h (1 Bft) 100,00 %
24.06.2021 22:32 17,4 C 16,7 C 14,5 C 86 % 1019,6 hPa 0,0 l/m 0 min 0 min 0 W/m 3,2 km/h (1 Bft) 100,00 %
24.06.2021 22:34 17,4 C 16,7 C 14,5 C 86 % 1019,6 hPa 0,0 l/m 0 min 0 min 0 W/m 3,2 km/h (1 Bft) 100,00 %
24.06.2021 22:36 17,4 C 16,7 C 14,5 C 86 % 1019,6 hPa 0,0 l/m 0 min 0 min 0 W/m 12,9 km/h (3 Bft) 97,87 %
24.06.2021 22:38 17,3 C 16,7 C 14,5 C 86 % 1019,6 hPa 0,0 l/m 0 min 0 min 0 W/m 6,4 km/h (2 Bft) 100,00 %
24.06.2021 22:40 17,3 C 16,7 C 14,5 C 86 % 1019,6 hPa 0,0 l/m 0 min 0 min 0 W/m 6,4 km/h (2 Bft) 97,83 %
24.06.2021 22:42 17,3 C 16,7 C 14,5 C 86 % 1019,6 hPa 0,0 l/m 0 min 0 min 0 W/m 6,4 km/h (2 Bft) 100,00 %
24.06.2021 22:44 17,3 C 16,7 C 14,5 C 86 % 1019,6 hPa 0,0 l/m 0 min 0 min 0 W/m 6,4 km/h (2 Bft) 100,00 %
24.06.2021 22:46 17,3 C 16,7 C 14,5 C 86 % 1019,6 hPa 0,0 l/m 0 min 0 min 0 W/m 3,2 km/h (1 Bft) 100,00 %
24.06.2021 22:48 17,3 C 16,7 C 14,5 C 86 % 1019,6 hPa 0,0 l/m 0 min 0 min 0 W/m 3,2 km/h (1 Bft) 100,00 %
24.06.2021 22:50 17,3 C 16,7 C 14,5 C 86 % 1019,6 hPa 0,0 l/m 0 min 0 min 0 W/m 3,2 km/h (1 Bft) 100,00 %
24.06.2021 22:52 17,3 C 16,7 C 14,5 C 86 % 1019,6 hPa 0,0 l/m 0 min 0 min 0 W/m 3,2 km/h (1 Bft) 100,00 %
24.06.2021 22:54 17,3 C 16,7 C 14,5 C 86 % 1019,6 hPa 0,0 l/m 0 min 0 min 0 W/m 3,2 km/h (1 Bft) 100,00 %
24.06.2021 22:56 17,3 C 16,7 C 14,5 C 86 % 1019,6 hPa 0,0 l/m 0 min 0 min 0 W/m 6,4 km/h (2 Bft) 95,74 %
24.06.2021 22:58 17,2 C 16,7 C 14,5 C 86 % 1019,7 hPa 0,0 l/m 0 min 0 min 0 W/m 3,2 km/h (1 Bft) 100,00 %
24.06.2021 23:00 17,2 C 16,7 C 14,5 C 86 % 1019,6 hPa 0,0 l/m 0 min 0 min 0 W/m 0,0 km/h (0 Bft) 100,00 %
24.06.2021 23:02 17,2 C 16,7 C 14,5 C 86 % 1019,6 hPa 0,0 l/m 0 min 0 min 0 W/m 3,2 km/h (1 Bft) 98,08 %
24.06.2021 23:04 17,2 C 16,7 C 14,5 C 86 % 1019,6 hPa 0,0 l/m 0 min 0 min 0 W/m 3,2 km/h (1 Bft) 97,87 %
24.06.2021 23:06 17,2 C 16,7 C 14,5 C 86 % 1019,6 hPa 0,0 l/m 0 min 0 min 0 W/m 3,2 km/h (1 Bft) 100,00 %
24.06.2021 23:08 17,2 C 16,7 C 14,5 C 86 % 1019,6 hPa 0,0 l/m 0 min 0 min 0 W/m 3,2 km/h (1 Bft) 100,00 %
24.06.2021 23:10 17,2 C 16,7 C 14,5 C 86 % 1019,6 hPa 0,0 l/m 0 min 0 min 0 W/m 6,4 km/h (2 Bft) 100,00 %
24.06.2021 23:12 17,2 C 16,7 C 14,5 C 86 % 1019,6 hPa 0,0 l/m 0 min 0 min 0 W/m 3,2 km/h (1 Bft) 100,00 %
24.06.2021 23:14 17,2 C 16,1 C 14,5 C 86 % 1019,6 hPa 0,0 l/m 0 min 0 min 0 W/m 3,2 km/h (1 Bft) 97,87 %
24.06.2021 23:16 17,1 C 16,1 C 14,5 C 86 % 1019,6 hPa 0,0 l/m 0 min 0 min 0 W/m 0,0 km/h (0 Bft) 100,00 %
24.06.2021 23:18 17,2 C 16,1 C 14,5 C 86 % 1019,6 hPa 0,0 l/m 0 min 0 min 0 W/m 3,2 km/h (1 Bft) 100,00 %
24.06.2021 23:20 17,1 C 16,1 C 14,5 C 86 % 1019,6 hPa 0,0 l/m 0 min 0 min 0 W/m 3,2 km/h (1 Bft) 100,00 %
24.06.2021 23:22 17,1 C 16,7 C 14,5 C 86 % 1019,7 hPa 0,0 l/m 0 min 0 min 0 W/m 3,2 km/h (1 Bft) 100,00 %
24.06.2021 23:24 17,1 C 16,7 C 14,5 C 86 % 1019,6 hPa 0,0 l/m 0 min 0 min 0 W/m 3,2 km/h (1 Bft) 95,74 %
24.06.2021 23:26 17,1 C 16,1 C 14,5 C 86 % 1019,6 hPa 0,0 l/m 0 min 0 min 0 W/m 0,0 km/h (0 Bft) 95,74 %
24.06.2021 23:28 17,1 C 16,1 C 14,5 C 86 % 1019,6 hPa 0,0 l/m 0 min 0 min 0 W/m 0,0 km/h (0 Bft) 95,65 %
24.06.2021 23:30 17,1 C 16,1 C 14,5 C 86 % 1019,7 hPa 0,0 l/m 0 min 0 min 0 W/m 3,2 km/h (1 Bft) 95,74 %
24.06.2021 23:32 17,1 C 16,1 C 14,5 C 86 % 1019,7 hPa 0,0 l/m 0 min 0 min 0 W/m 0,0 km/h (0 Bft) 93,75 %
24.06.2021 23:34 17,1 C 16,1 C 14,5 C 86 % 1019,6 hPa 0,0 l/m 0 min 0 min 0 W/m 0,0 km/h (0 Bft) 95,74 %
24.06.2021 23:36 17,1 C 16,1 C 14,5 C 86 % 1019,7 hPa 0,0 l/m 0 min 0 min 0 W/m 3,2 km/h (1 Bft) 95,74 %
24.06.2021 23:38 17,1 C 16,1 C 14,5 C 86 % 1019,6 hPa 0,0 l/m 0 min 0 min 0 W/m 3,2 km/h (1 Bft) 95,83 %
24.06.2021 23:40 17,1 C 16,1 C 14,5 C 86 % 1019,6 hPa 0,0 l/m 0 min 0 min 0 W/m 3,2 km/h (1 Bft) 93,62 %
24.06.2021 23:42 17,1 C 16,1 C 14,5 C 86 % 1019,5 hPa 0,0 l/m 0 min 0 min 0 W/m 3,2 km/h (1 Bft) 95,74 %
24.06.2021 23:44 17,1 C 16,1 C 14,5 C 86 % 1019,6 hPa 0,0 l/m 0 min 0 min 0 W/m 0,0 km/h (0 Bft) 95,74 %
24.06.2021 23:46 17,1 C 16,1 C 14,5 C 86 % 1019,6 hPa 0,0 l/m 0 min 0 min 0 W/m 3,2 km/h (1 Bft) 95,74 %
24.06.2021 23:48 17,1 C 16,1 C 14,5 C 86 % 1019,5 hPa 0,0 l/m 0 min 0 min 0 W/m 0,0 km/h (0 Bft) 93,62 %
24.06.2021 23:50 17,1 C 16,1 C 14,5 C 86 % 1019,6 hPa 0,0 l/m 0 min 0 min 0 W/m 0,0 km/h (0 Bft) 93,48 %
24.06.2021 23:52 17,1 C 16,1 C 14,5 C 86 % 1019,6 hPa 0,0 l/m 0 min 0 min 0 W/m 0,0 km/h (0 Bft) 95,74 %
24.06.2021 23:54 17,1 C 16,1 C 14,5 C 86 % 1019,5 hPa 0,0 l/m 0 min 0 min 0 W/m 0,0 km/h (0 Bft) 93,62 %
24.06.2021 23:56 17,0 C 16,1 C 14,5 C 86 % 1019,5 hPa 0,0 l/m 0 min 0 min 0 W/m 3,2 km/h (1 Bft) 89,36 %
24.06.2021 23:58 17,0 C 16,1 C 14,5 C 86 % 1019,5 hPa 0,0 l/m 0 min 0 min 0 W/m 3,2 km/h (1 Bft) 93,62 %
_ Min-Zeit 05:46 04:56 04:52 14:34 18:24 - - - - 00:08 12:28
Minimum _ 14,0 C 13,3 C 12,3 C 67 % 1018,4 hPa - - - - 0,0 km/h (0 Bft) 70,21 %
_ Max-Zeit 14:28 14:02 12:56 06:10 00:32 00:00 18:08 17:12 12:54 10:00 00:08
Maximum _ 23,1 C 26,7 C 26,7 C 94 % 1020,9 hPa 0,0 l/m 4 min 2 min 1075 W/m 25,7 km/h
N-NW (4 Bft)
100,00 %
Durchschnitt _ 18,2 C 18,2 C 16,2 C 83 % 1019,6 hPa #0,0 l/m #5:16 h #2 min. 247 W/m 9,7 km/h (2 Bft) 97,20 %
© 2021 W. Hausmann